M I D A S
Marine Information and Data Acquisition System
Tripno 1871 of the Zeeleeuw from 2010-04-29 06:50:12 to 2010-04-29 15:24:54
Back to CruiseResearch ActivitiesStationsMapUnderway DataData graphs

EquipmentUnitsComment
TimeDGPSUTC
LatitudeDGPSDM.mWGS84
LongitudeDGPSDM.mWGS84
TemperatureSBE03/SBE38deg celciusITS90
ConductivitySBE21S/mITS90
SalinitySBE21 Practical Salinity Units
ChlorophylAChelsea fluorimeterg/lCalibrated in Aceton
Missing or incorrect values are displayed as -999
Sea surface data collected by the RV Zeeleeuw from 2010-04-29 06:37:43 to 2010-04-29 15:27:23
                                                                                    Next 1000 lines
Time Latitude Longitude Temperature Conductivity Salinity ChlorophylA
2010-04-29 06:37:52 51°13.663 2°55.954 19.6567 4.629253 32.673019 -1.000568
2010-04-29 06:37:57 51°13.664 2°55.951 19.7177 4.629253 32.671962 -1.000568
2010-04-29 06:38:02 51°13.665 2°55.947 19.708 4.629253 32.673547 -1.000568
2010-04-29 06:38:07 51°13.667 2°55.942 19.7051 4.629253 32.67249 -1.035392
2010-04-29 06:38:13 51°13.669 2°55.935 19.7307 4.629042 32.672407 -1.000568
2010-04-29 06:38:19 51°13.671 2°55.929 19.74 4.629042 32.671351 -1.000568
2010-04-29 06:38:24 51°13.673 2°55.923 19.7505 4.629042 32.671351 -1.000568
2010-04-29 06:38:30 51°13.675 2°55.915 19.7519 4.629042 32.671879 -1.000568
2010-04-29 06:38:34 51°13.677 2°55.91 19.7527 4.629147 32.671656 -1.035392
2010-04-29 06:38:39 51°13.679 2°55.904 19.7534 4.629042 32.670822 -1.035392
2010-04-29 06:38:44 51°13.68 2°55.897 19.7565 4.629042 32.670294 -1.000568
2010-04-29 06:38:49 51°13.682 2°55.891 19.754 4.629042 32.670294 -1.000568
2010-04-29 06:38:54 51°13.684 2°55.884 19.7179 4.629042 32.671351 -1.000568
2010-04-29 06:38:59 51°13.685 2°55.877 19.7238 4.629147 32.672185 -1.035392
2010-04-29 06:39:04 51°13.686 2°55.869 19.7398 4.629042 32.671879 -1.035392
2010-04-29 06:39:09 51°13.687 2°55.861 19.7573 4.629042 32.671351 -1.035392
2010-04-29 06:39:14 51°13.689 2°55.853 19.77 4.629042 32.671351 -1.035392
2010-04-29 06:39:19 51°13.69 2°55.846 19.7658 4.629042 32.671351 -1.000568
2010-04-29 06:39:24 51°13.691 2°55.838 19.7831 4.629042 32.671351 -1.000568
2010-04-29 06:39:29 51°13.692 2°55.83 19.7793 4.628936 32.670517 -1.000568
2010-04-29 06:39:34 51°13.693 2°55.822 19.7723 4.628936 32.669988 -1.070216
2010-04-29 06:39:39 51°13.694 2°55.814 19.772 4.629042 32.670294 -1.035392
2010-04-29 06:39:44 51°13.695 2°55.807 19.7735 4.629042 32.670294 -1.000568
2010-04-29 06:39:49 51°13.696 2°55.799 19.7699 4.628936 32.669988 -1.035392
2010-04-29 06:39:54 51°13.697 2°55.792 19.775 4.628936 32.669988 -1.035392
2010-04-29 06:39:59 51°13.698 2°55.784 19.7811 4.628936 32.669988 -1.035392
2010-04-29 06:40:04 51°13.699 2°55.777 19.779 4.628936 32.669988 -1.000568
2010-04-29 06:40:09 51°13.7 2°55.771 19.7669 4.628936 32.670517 -1.000568
2010-04-29 06:40:14 51°13.7 2°55.764 19.7584 4.62883 32.669154 -1.000568
2010-04-29 06:40:19 51°13.701 2°55.759 19.7669 4.629042 32.670822 -0.965744
2010-04-29 06:40:24 51°13.701 2°55.754 19.7446 4.629042 32.670822 -0.965744
2010-04-29 06:40:30 51°13.701 2°55.749 19.7637 4.628936 32.669988 -1.000568
2010-04-29 06:40:34 51°13.701 2°55.746 19.7668 4.628936 32.66946 -1.035392
2010-04-29 06:40:39 51°13.702 2°55.743 19.7675 4.628936 32.668932 -1.000568
2010-04-29 06:40:44 51°13.702 2°55.74 19.7699 4.628936 32.66946 -1.000568
2010-04-29 06:40:49 51°13.703 2°55.739 19.7696 4.628936 32.66946 -1.000568
2010-04-29 06:40:54 51°13.704 2°55.737 19.775 4.629042 32.670294 -1.035392
2010-04-29 06:40:59 51°13.704 2°55.737 19.7776 4.628936 32.66946 -1.000568
2010-04-29 06:41:04 51°13.704 2°55.737 19.7851 4.629042 32.670294 -1.000568
2010-04-29 06:41:09 51°13.705 2°55.736 19.7737 4.629042 32.670294 -1.035392
2010-04-29 06:41:14 51°13.706 2°55.736 19.7695 4.628936 32.669988 -1.000568
2010-04-29 06:41:19 51°13.707 2°55.736 19.7571 4.62883 32.669154 -1.000568
2010-04-29 06:41:24 51°13.707 2°55.735 19.7631 4.62883 32.669154 -1.000568
2010-04-29 06:41:29 51°13.707 2°55.734 19.7665 4.628936 32.670517 -1.035392
2010-04-29 06:41:34 51°13.706 2°55.733 19.7643 4.628936 32.670517 -1.035392
2010-04-29 06:41:39 51°13.706 2°55.731 19.7159 4.628936 32.671045 -1.000568
2010-04-29 06:41:44 51°13.704 2°55.729 19.7679 4.628936 32.670517 -1.000568
2010-04-29 06:41:49 51°13.703 2°55.727 19.7827 4.628936 32.669988 -1.000568
2010-04-29 06:41:54 51°13.702 2°55.726 19.7809 4.628936 32.669988 -1.000568
2010-04-29 06:41:59 51°13.702 2°55.724 19.7899 4.62883 32.669154 -1.035392
2010-04-29 06:42:04 51°13.702 2°55.723 19.8194 4.62883 32.668626 -1.035392
2010-04-29 06:42:09 51°13.703 2°55.722 19.8317 4.628936 32.668404 -1.000568
2010-04-29 06:42:14 51°13.704 2°55.722 19.8435 4.62883 32.668626 -1.035392
2010-04-29 06:42:19 51°13.706 2°55.722 19.8814 4.62883 32.668626 -1.035392
2010-04-29 06:42:24 51°13.709 2°55.721 19.8804 4.62883 32.668098 -1.000568
2010-04-29 06:42:29 51°13.712 2°55.72 19.874 4.62883 32.669154 -1.000568
2010-04-29 06:42:34 51°13.717 2°55.718 19.8718 4.629042 32.670822 -1.035392
2010-04-29 06:42:39 51°13.722 2°55.714 19.8759 4.628936 32.671045 -1.035392
2010-04-29 06:42:44 51°13.729 2°55.71 19.8776 4.628936 32.670517 -1.000568
2010-04-29 06:42:49 51°13.735 2°55.705 19.8234 4.628936 32.66946 -1.035392
2010-04-29 06:42:54 51°13.743 2°55.698 19.6908 4.628936 32.66946 -1.035392
2010-04-29 06:42:59 51°13.751 2°55.691 19.7062 4.62883 32.66757 -1.035392
2010-04-29 06:43:04 51°13.759 2°55.684 19.6027 4.628936 32.667348 -1.035392
2010-04-29 06:43:09 51°13.768 2°55.676 19.6277 4.628936 32.66682 -1.035392
2010-04-29 06:43:14 51°13.777 2°55.668 19.5968 4.62883 32.666514 -1.035392
2010-04-29 06:43:19 51°13.787 2°55.66 19.5822 4.628936 32.667876 -1.000568
2010-04-29 06:43:24 51°13.797 2°55.653 19.5432 4.628936 32.667876 -1.000568
2010-04-29 06:43:29 51°13.809 2°55.646 19.5306 4.628936 32.668932 -1.035392
2010-04-29 06:43:34 51°13.821 2°55.638 19.5372 4.628936 32.66946 -1.000568
2010-04-29 06:43:39 51°13.832 2°55.63 19.542 4.62883 32.669154 -1.000568
2010-04-29 06:43:44 51°13.844 2°55.622 19.5415 4.628936 32.669988 -1.035392
2010-04-29 06:43:49 51°13.856 2°55.614 19.515 4.62883 32.669683 -1.000568
2010-04-29 06:43:54 51°13.868 2°55.606 19.5716 4.62883 32.669683 -1.000568
2010-04-29 06:43:59 51°13.88 2°55.598 19.5368 4.629042 32.670294 -1.035392
2010-04-29 06:44:03 51°13.89 2°55.592 19.5694 4.62883 32.669154 -1.035392
2010-04-29 06:44:08 51°13.903 2°55.584 19.6402 4.629042 32.670822 -1.000568
2010-04-29 06:44:14 51°13.919 2°55.574 19.6664 4.628936 32.669988 -1.035392
2010-04-29 06:44:19 51°13.932 2°55.565 19.6666 4.62883 32.670211 -1.035392
2010-04-29 06:44:24 51°13.944 2°55.555 19.6774 4.62883 32.670211 -1.035392
2010-04-29 06:44:29 51°13.958 2°55.547 19.6759 4.629042 32.671879 -1.035392
2010-04-29 06:44:34 51°13.971 2°55.537 19.6322 4.628936 32.669988 -1.000568
2010-04-29 06:44:39 51°13.985 2°55.528 19.6628 4.62883 32.669683 -1.035392
2010-04-29 06:44:43 51°13.995 2°55.52 19.63 4.629042 32.671351 -1.000568
2010-04-29 06:44:49 51°14.011 2°55.508 19.637 4.628725 32.668849 -1.000568
2010-04-29 06:44:54 51°14.024 2°55.498 19.6467 4.628725 32.668849 -1.000568
2010-04-29 06:44:59 51°14.037 2°55.488 19.6383 4.62883 32.669683 -1.035392
2010-04-29 06:45:04 51°14.049 2°55.478 19.6721 4.62883 32.668626 -1.035392
2010-04-29 06:45:08 51°14.06 2°55.47 19.7087 4.62883 32.668626 -1.035392
2010-04-29 06:45:15 51°14.078 2°55.455 19.6741 4.628936 32.66946 -1.000568
2010-04-29 06:45:19 51°14.088 2°55.447 19.6738 4.62883 32.668626 -1.000568
2010-04-29 06:45:23 51°14.098 2°55.439 19.677 4.62883 32.668626 -1.000568
2010-04-29 06:45:28 51°14.111 2°55.428 19.6284 4.629042 32.669766 -1.000568
2010-04-29 06:45:34 51°14.127 2°55.417 19.6422 4.628725 32.667792 -1.000568
2010-04-29 06:45:40 51°14.143 2°55.405 19.5283 4.62883 32.668098 -1.035392
2010-04-29 06:45:44 51°14.154 2°55.398 19.624 4.62883 32.66757 -1.035392
2010-04-29 06:45:49 51°14.167 2°55.388 19.655 4.628936 32.668932 -1.035392
2010-04-29 06:45:54 51°14.181 2°55.378 19.6937 4.628936 32.668932 -1.035392
2010-04-29 06:45:59 51°14.195 2°55.369 19.7393 4.62883 32.668098 -1.035392
2010-04-29 06:46:04 51°14.209 2°55.359 19.7541 4.62883 32.668098 -1.000568
2010-04-29 06:46:09 51°14.223 2°55.348 19.7408 4.62883 32.668626 -1.000568
2010-04-29 06:46:14 51°14.236 2°55.336 19.7405 4.62883 32.668098 -1.000568
2010-04-29 06:46:19 51°14.249 2°55.324 19.7341 4.628936 32.668932 -1.000568
2010-04-29 06:46:24 51°14.262 2°55.311 19.6934 4.628936 32.668932 -1.000568
2010-04-29 06:46:28 51°14.273 2°55.301 19.67 4.628936 32.668404 -1.035392
2010-04-29 06:46:33 51°14.287 2°55.289 19.6442 4.62883 32.668098 -1.000568
2010-04-29 06:46:38 51°14.3 2°55.276 19.518 4.628936 32.668404 -1.035392
2010-04-29 06:46:43 51°14.314 2°55.264 19.5224 4.629042 32.669238 -1.000568
2010-04-29 06:46:48 51°14.328 2°55.251 19.5684 4.628936 32.668404 -1.000568
2010-04-29 06:46:52 51°14.34 2°55.242 19.6547 4.628936 32.668404 -1.000568
2010-04-29 06:46:58 51°14.357 2°55.226 19.6151 4.628936 32.667876 -1.035392
2010-04-29 06:47:03 51°14.371 2°55.212 19.612 4.62883 32.66757 -1.000568
2010-04-29 06:47:08 51°14.385 2°55.199 19.6395 4.628936 32.668404 -1.000568
2010-04-29 06:47:13 51°14.399 2°55.185 19.5685 4.628936 32.668932 -1.000568
2010-04-29 06:47:18 51°14.414 2°55.172 19.5739 4.629042 32.66871 -1.000568
2010-04-29 06:47:23 51°14.428 2°55.158 19.6273 4.629042 32.66871 -1.000568
2010-04-29 06:47:28 51°14.442 2°55.144 19.5946 4.62883 32.667042 -1.000568
2010-04-29 06:47:32 51°14.454 2°55.132 19.6777 4.629042 32.669766 -1.035392
2010-04-29 06:47:37 51°14.468 2°55.119 19.5071 4.629147 32.669544 -1.000568
2010-04-29 06:47:42 51°14.482 2°55.103 19.5225 4.62883 32.668098 -1.000568
2010-04-29 06:47:47 51°14.497 2°55.089 19.6192 4.62883 32.668098 -1.000568
2010-04-29 06:47:52 51°14.512 2°55.074 19.5332 4.629042 32.668182 -1.035392
2010-04-29 06:47:56 51°14.524 2°55.063 19.6797 4.62883 32.666514 -1.035392
2010-04-29 06:48:01 51°14.539 2°55.049 19.6977 4.62883 32.665458 -1.000568
2010-04-29 06:48:06 51°14.555 2°55.033 19.6833 4.629042 32.66871 -1.035392
2010-04-29 06:48:11 51°14.57 2°55.016 19.7105 4.629042 32.669238 -0.965744
2010-04-29 06:48:16 51°14.585 2°54.998 19.5713 4.628936 32.668932 -1.000568
2010-04-29 06:48:20 51°14.598 2°54.984 19.5208 4.628936 32.668932 -1.000568
2010-04-29 06:48:25 51°14.613 2°54.966 19.6977 4.629042 32.66871 -1.035392
2010-04-29 06:48:31 51°14.632 2°54.946 19.7015 4.628936 32.66682 -1.035392
2010-04-29 06:48:36 51°14.647 2°54.929 19.6228 4.629042 32.66871 -1.035392
2010-04-29 06:48:40 51°14.66 2°54.914 19.5616 4.629147 32.6706 -0.965744
2010-04-29 06:48:46 51°14.679 2°54.893 19.6278 4.629042 32.669238 -1.035392
2010-04-29 06:48:51 51°14.694 2°54.876 19.6961 4.629042 32.669238 -1.035392
2010-04-29 06:48:56 51°14.711 2°54.859 19.7141 4.629147 32.669016 -1.035392
2010-04-29 06:49:00 51°14.723 2°54.845 19.7079 4.629042 32.668182 -1.000568
2010-04-29 06:49:06 51°14.742 2°54.825 19.6401 4.629042 32.668182 -1.000568
2010-04-29 06:49:11 51°14.758 2°54.807 19.6412 4.629147 32.669544 -0.965744
2010-04-29 06:49:16 51°14.774 2°54.79 19.681 4.629147 32.669544 -0.965744
2010-04-29 06:49:20 51°14.787 2°54.776 19.7159 4.628936 32.667876 -1.000568
2010-04-29 06:49:25 51°14.802 2°54.757 19.7165 4.629042 32.66871 -1.000568
2010-04-29 06:49:31 51°14.82 2°54.734 19.6214 4.629042 32.66871 -1.035392
2010-04-29 06:49:36 51°14.835 2°54.715 19.5275 4.629042 32.669766 -1.000568
2010-04-29 06:49:40 51°14.847 2°54.7 19.4717 4.629042 32.669238 -1.035392
2010-04-29 06:49:46 51°14.865 2°54.678 19.4741 4.629042 32.667654 -1.035392
2010-04-29 06:49:51 51°14.881 2°54.66 19.5181 4.629042 32.667654 -1.035392
2010-04-29 06:49:56 51°14.898 2°54.644 19.6619 4.629042 32.667125 -1.035392
2010-04-29 06:50:00 51°14.911 2°54.632 19.6509 4.629042 32.666597 -1.035392
2010-04-29 06:50:05 51°14.927 2°54.615 19.6572 4.629042 32.668182 -1.000568
2010-04-29 06:50:11 51°14.946 2°54.596 19.5909 4.629042 32.669238 -1.035392
2010-04-29 06:50:16 51°14.962 2°54.58 19.6204 4.629358 32.671212 -1.035392
2010-04-29 06:50:20 51°14.975 2°54.567 19.642 4.629358 32.671212 -1.035392
2010-04-29 06:50:26 51°14.992 2°54.548 19.669 4.62883 32.667042 -1.000568
2010-04-29 06:50:31 51°15.006 2°54.531 19.6226 4.629253 32.670906 -1.035392
2010-04-29 06:50:36 51°15.021 2°54.514 19.5961 4.629147 32.671128 -1.000568
2010-04-29 06:50:40 51°15.032 2°54.499 19.5841 4.628936 32.668932 -1.035392
2010-04-29 06:50:46 51°15.049 2°54.477 19.6128 4.629253 32.66985 -1.035392
2010-04-29 06:50:51 51°15.064 2°54.459 19.5518 4.629253 32.66985 -1.035392
2010-04-29 06:50:56 51°15.078 2°54.441 19.6003 4.628936 32.66682 -1.035392
2010-04-29 06:51:01 51°15.091 2°54.421 19.5929 4.629253 32.668793 -1.000568
2010-04-29 06:51:06 51°15.105 2°54.402 19.5827 4.629042 32.667654 -1.035392
2010-04-29 06:51:10 51°15.116 2°54.386 19.5693 4.629147 32.669016 -1.035392
2010-04-29 06:51:16 51°15.132 2°54.362 19.5289 4.629147 32.669016 -1.035392
2010-04-29 06:51:21 51°15.146 2°54.342 19.526 4.629253 32.670378 -1.000568
2010-04-29 06:51:26 51°15.159 2°54.322 19.4915 4.629147 32.669544 -1.035392
2010-04-29 06:51:31 51°15.174 2°54.303 19.4795 4.629253 32.670378 -1.000568
2010-04-29 06:51:36 51°15.188 2°54.283 19.581 4.629147 32.668488 -1.035392
2010-04-29 06:51:40 51°15.199 2°54.267 19.5912 4.629253 32.669321 -1.000568
2010-04-29 06:51:46 51°15.217 2°54.245 19.6125 4.629042 32.667125 -1.035392
2010-04-29 06:51:51 51°15.231 2°54.226 19.5658 4.629042 32.667125 -1.035392
2010-04-29 06:51:56 51°15.246 2°54.207 19.6054 4.629147 32.668488 -1.000568
2010-04-29 06:52:00 51°15.258 2°54.192 19.6142 4.629147 32.669016 -1.000568
2010-04-29 06:52:05 51°15.273 2°54.174 19.5982 4.629253 32.66985 -1.000568
2010-04-29 06:52:11 51°15.291 2°54.152 19.6078 4.629042 32.667654 -1.000568
2010-04-29 06:52:16 51°15.307 2°54.133 19.5966 4.629147 32.667959 -1.035392
2010-04-29 06:52:20 51°15.319 2°54.118 19.62 4.629147 32.667959 -1.035392
2010-04-29 06:52:26 51°15.337 2°54.097 19.64 4.629253 32.668793 -1.035392
2010-04-29 06:52:31 51°15.353 2°54.078 19.5748 4.629358 32.670155 -1.035392
2010-04-29 06:52:36 51°15.368 2°54.06 19.6385 4.629042 32.669238 -1.035392
2010-04-29 06:52:40 51°15.38 2°54.045 19.6401 4.629253 32.670378 -1.000568
2010-04-29 06:52:46 51°15.398 2°54.022 19.6454 4.629042 32.669238 -1.000568
2010-04-29 06:52:51 51°15.412 2°54.002 19.6181 4.629042 32.669238 -1.000568
2010-04-29 06:52:56 51°15.427 2°53.983 19.6216 4.629042 32.66871 -1.000568
2010-04-29 06:53:01 51°15.442 2°53.963 19.622 4.629253 32.66985 -1.000568
2010-04-29 06:53:06 51°15.457 2°53.945 19.6165 4.629253 32.669321 -1.000568
2010-04-29 06:53:10 51°15.469 2°53.929 19.5809 4.629042 32.667654 -1.000568
2010-04-29 06:53:16 51°15.487 2°53.907 19.5876 4.629042 32.667654 -1.000568
2010-04-29 06:53:20 51°15.499 2°53.892 19.5939 4.629042 32.668182 -1.035392
2010-04-29 06:53:26 51°15.518 2°53.869 19.6111 4.629147 32.669016 -1.000568
2010-04-29 06:53:31 51°15.533 2°53.85 19.6188 4.628936 32.667348 -1.000568
2010-04-29 06:53:36 51°15.549 2°53.831 19.6511 4.629147 32.669544 -1.000568
2010-04-29 06:53:40 51°15.561 2°53.816 19.6269 4.629042 32.668182 -1.000568
2010-04-29 06:53:46 51°15.58 2°53.794 19.6371 4.628936 32.667876 -1.035392
2010-04-29 06:53:51 51°15.596 2°53.775 19.6326 4.628936 32.667876 -1.035392
2010-04-29 06:53:56 51°15.611 2°53.756 19.6393 4.629042 32.667654 -1.000568
2010-04-29 06:54:00 51°15.623 2°53.741 19.6546 4.629042 32.66871 -1.035392
2010-04-29 06:54:05 51°15.639 2°53.722 19.6546 4.629042 32.667654 -1.035392
2010-04-29 06:54:11 51°15.657 2°53.7 19.6497 4.628936 32.667876 -0.965744
2010-04-29 06:54:16 51°15.672 2°53.681 19.6335 4.628936 32.667348 -1.035392
2010-04-29 06:54:20 51°15.685 2°53.665 19.6428 4.628936 32.667348 -1.035392
2010-04-29 06:54:26 51°15.703 2°53.643 19.6308 4.62883 32.667042 -1.000568
2010-04-29 06:54:31 51°15.719 2°53.624 19.6434 4.629042 32.668182 -1.035392
2010-04-29 06:54:36 51°15.735 2°53.606 19.6726 4.628936 32.667348 -1.000568
2010-04-29 06:54:40 51°15.747 2°53.591 19.6591 4.629042 32.66871 -1.035392
2010-04-29 06:54:46 51°15.766 2°53.568 19.6597 4.629042 32.66871 -1.035392
2010-04-29 06:54:50 51°15.778 2°53.553 19.6912 4.628725 32.666208 -1.035392
2010-04-29 06:54:56 51°15.797 2°53.531 19.6902 4.628936 32.668404 -1.000568
2010-04-29 06:55:01 51°15.812 2°53.513 18.0087 4.628936 32.668404 -1.035392
2010-04-29 06:55:06 51°15.828 2°53.494 15.5361 4.62883 32.66757 -1.000568
2010-04-29 06:55:10 51°15.84 2°53.479 14.7438 4.450977 31.44748 -0.826448
2010-04-29 06:55:16 51°15.859 2°53.457 13.8748 4.450977 31.44748 -0.826448
2010-04-29 06:55:20 51°15.871 2°53.442 13.1913 4.632941 32.389927 -0.861272
2010-04-29 06:55:26 51°15.89 2°53.419 12.828 4.609933 32.426645 2.76043
2010-04-29 06:55:31 51°15.906 2°53.399 12.5805 4.310505 30.252904 3.004198
2010-04-29 06:55:36 51°15.922 2°53.381 12.4321 4.488982 32.164853 5.232937
2010-04-29 06:55:40 51°15.935 2°53.366 12.4522 4.517931 33.927605 4.954345
2010-04-29 06:55:46 51°15.955 2°53.347 12.3026 4.185193 31.92313 4.327512
2010-04-29 06:55:51 51°15.971 2°53.33 12.2473 4.185193 31.92313 4.327512
2010-04-29 06:55:56 51°15.988 2°53.316 12.1144 4.013022 31.38498 3.874799
2010-04-29 06:56:00 51°16.001 2°53.305 12.0444 3.912292 31.310282 3.596207
2010-04-29 06:56:06 51°16.022 2°53.29 12.0821 3.844899 31.263192 3.596207
2010-04-29 06:56:11 51°16.039 2°53.277 11.9653 3.780042 31.202131 3.596207
2010-04-29 06:56:16 51°16.056 2°53.265 11.8819 3.723308 30.990272 3.735503
2010-04-29 06:56:20 51°16.07 2°53.255 11.8853 3.723308 30.990272 3.735503
2010-04-29 06:56:26 51°16.091 2°53.242 11.8301 3.704962 31.09343 3.909623
2010-04-29 06:56:31 51°16.108 2°53.23 11.7935 3.693047 31.099767 4.153392
2010-04-29 06:56:36 51°16.126 2°53.22 11.8021 3.650869 30.895338 4.362336
2010-04-29 06:56:40 51°16.14 2°53.211 11.7589 3.633156 30.858189 4.39716
2010-04-29 06:56:46 51°16.161 2°53.198 11.7569 3.633156 30.858189 4.39716
2010-04-29 06:56:51 51°16.179 2°53.187 11.7422 3.610381 30.720483 4.606104
2010-04-29 06:56:56 51°16.196 2°53.176 11.755 3.606059 30.757713 4.815049
2010-04-29 06:57:00 51°16.211 2°53.166 11.6885 3.59425 30.704159 5.267761
2010-04-29 06:57:05 51°16.227 2°53.155 11.7102 3.587187 30.714872 5.964243
2010-04-29 06:57:11 51°16.248 2°53.141 11.7048 3.575378 30.635366 6.904492
2010-04-29 06:57:16 51°16.266 2°53.13 11.6582 3.568209 30.607646 8.192982
2010-04-29 06:57:21 51°16.283 2°53.118 11.6553 3.568209 30.607646 8.192982
2010-04-29 06:57:26 51°16.3 2°53.107 11.6375 3.564941 30.602901 9.969009
2010-04-29 06:57:30 51°16.314 2°53.098 11.6691 3.560934 30.589182 11.361971
2010-04-29 06:57:36 51°16.335 2°53.084 11.6623 3.544487 30.461234 12.650461
2010-04-29 06:57:41 51°16.352 2°53.072 11.6636 3.544593 30.487961 13.103174
2010-04-29 06:57:46 51°16.37 2°53.061 11.6463 3.547861 30.533999 13.172822
2010-04-29 06:57:51 51°16.387 2°53.049 11.6174 3.547861 30.533999 13.172822
2010-04-29 06:57:56 51°16.405 2°53.037 11.6111 3.544699 30.520541 12.894229
2010-04-29 06:58:01 51°16.422 2°53.026 11.5956 3.533839 30.438633 12.441517
2010-04-29 06:58:06 51°16.439 2°53.014 11.5717 3.533839 30.453449 11.95398
2010-04-29 06:58:11 51°16.456 2°53.002 11.5433 3.521082 30.342364 11.536091
2010-04-29 06:58:16 51°16.473 2°52.99 11.5701 3.521082 30.342364 11.536091
2010-04-29 06:58:20 51°16.487 2°52.98 11.5285 3.539533 30.523423 11.292323
2010-04-29 06:58:26 51°16.508 2°52.966 11.5105 3.530571 30.440869 11.327147
2010-04-29 06:58:31 51°16.525 2°52.955 11.5178 3.518763 30.338809 11.77986
2010-04-29 06:58:36 51°16.542 2°52.944 11.5167 3.528463 30.447774 12.789757
2010-04-29 06:58:40 51°16.556 2°52.935 11.5192 3.525406 30.435266 14.217543
2010-04-29 06:58:46 51°16.577 2°52.922 11.5034 3.53363 30.529627 15.575681
2010-04-29 06:58:51 51°16.595 2°52.912 11.4845 3.53363 30.529627 15.575681
2010-04-29 06:58:56 51°16.612 2°52.901 11.4873 3.534684 30.557901 16.585579
2010-04-29 06:59:00 51°16.626 2°52.893 11.4879 3.532892 30.556927 17.734773
2010-04-29 06:59:05 51°16.643 2°52.882 11.4532 3.52857 30.533597 18.361606
2010-04-29 06:59:10 51°16.661 2°52.872 11.4494 3.531206 30.566718 18.535726
2010-04-29 06:59:16 51°16.682 2°52.859 11.4385 3.530362 30.565115 18.361606
2010-04-29 06:59:20 51°16.696 2°52.851 11.4061 3.530362 30.565115 18.361606
2010-04-29 06:59:26 51°16.717 2°52.839 11.3817 3.522666 30.500245 17.978541
2010-04-29 06:59:30 51°16.73 2°52.83 11.275 3.523404 30.520331 17.525828
2010-04-29 06:59:36 51°16.751 2°52.817 11.122 3.527411 30.566016 17.247236
2010-04-29 06:59:40 51°16.764 2°52.809 11.0933 3.523404 30.537891 17.10794
2010-04-29 06:59:46 51°16.784 2°52.797 11.0769 3.526778 30.577519 16.864171
2010-04-29 06:59:51 51°16.8 2°52.786 11.0682 3.526778 30.577519 16.864171
2010-04-29 06:59:56 51°16.817 2°52.775 11.0712 3.516341 30.492687 16.724875
2010-04-29 07:00:01 51°16.833 2°52.765 11.0908 3.521402 30.550523 16.515931
2010-04-29 07:00:06 51°16.849 2°52.754 11.0811 3.527728 30.630401 16.933819
2010-04-29 07:00:11 51°16.865 2°52.743 11.1086 3.521508 30.610323 17.804421
2010-04-29 07:00:16 51°16.881 2°52.732 11.0841 3.522774 30.689476 17.630301
2010-04-29 07:00:20 51°16.894 2°52.722 11.1009 3.522774 30.689476 17.630301
2010-04-29 07:00:26 51°16.913 2°52.709 11.1041 3.523724 30.771883 17.316884
2010-04-29 07:00:31 51°16.929 2°52.697 11.1046 3.530472 30.873809 16.968644
2010-04-29 07:00:36 51°16.945 2°52.686 11.1013 3.527309 30.867687 16.690051
2010-04-29 07:00:40 51°16.958 2°52.677 11.09 3.519613 30.808855 16.341811
2010-04-29 07:00:46 51°16.978 2°52.663 11.1058 3.519719 30.813201 15.889098
2010-04-29 07:00:51 51°16.995 2°52.652 11.0932 3.519719 30.813201 15.889098
2010-04-29 07:00:56 51°17.011 2°52.641 11.1161 3.51508 30.770113 15.540857
2010-04-29 07:01:00 51°17.025 2°52.633 11.0885 3.522565 30.846852 15.192617
2010-04-29 07:01:05 51°17.041 2°52.622 11.1087 3.514025 30.763848 14.844376
2010-04-29 07:01:11 51°17.062 2°52.612 11.1032 3.520351 30.823336 14.53096
2010-04-29 07:01:16 51°17.079 2°52.603 11.0814 3.525728 30.883596 14.217543
2010-04-29 07:01:20 51°17.092 2°52.597 11.0719 3.525728 30.883596 14.217543
2010-04-29 07:01:25 51°17.109 2°52.589 11.0906 3.521616 30.843614 13.799655
2010-04-29 07:01:31 51°17.129 2°52.582 11.0953 3.529208 30.918767 13.451414
2010-04-29 07:01:36 51°17.146 2°52.575 11.0929 3.530262 30.929022 13.137998
2010-04-29 07:01:40 51°17.16 2°52.57 11.0701 3.523936 30.863504 12.929053
2010-04-29 07:01:45 51°17.177 2°52.564 11.0894 3.517926 30.808403 12.824581
2010-04-29 07:01:51 51°17.197 2°52.556 11.0803 3.517926 30.808403 12.824581
2010-04-29 07:01:56 51°17.214 2°52.55 11.0939 3.523409 30.863704 12.789757
2010-04-29 07:02:00 51°17.228 2°52.544 11.0942 3.530157 30.936004 12.650461
2010-04-29 07:02:06 51°17.249 2°52.535 11.1133 3.521406 30.852211 12.441517
2010-04-29 07:02:11 51°17.266 2°52.528 11.089 3.531633 30.951033 12.371868
2010-04-29 07:02:16 51°17.283 2°52.52 11.087 3.531633 30.951033 12.371868
2010-04-29 07:02:20 51°17.297 2°52.513 11.0849 3.521406 30.854873 12.232572
2010-04-29 07:02:26 51°17.317 2°52.502 11.0573 3.528891 30.927031 12.058452
2010-04-29 07:02:31 51°17.334 2°52.493 11.0656 3.532898 30.969358 11.988804
2010-04-29 07:02:36 51°17.351 2°52.484 11.0503 3.529524 30.937192 11.745035
2010-04-29 07:02:40 51°17.365 2°52.478 11.0457 3.526994 30.915238 11.640563
2010-04-29 07:02:46 51°17.385 2°52.467 11.0456 3.531949 30.966138 11.466443
2010-04-29 07:02:51 51°17.403 2°52.459 11.0488 3.531949 30.966138 11.466443
2010-04-29 07:02:56 51°17.42 2°52.453 11.0216 3.535534 31.001705 11.361971
2010-04-29 07:03:00 51°17.434 2°52.447 11.0146 3.52362 30.889742 11.292323
2010-04-29 07:03:05 51°17.451 2°52.442 10.985 3.524569 30.906317 11.292323
2010-04-29 07:03:11 51°17.472 2°52.435 10.9883 3.529946 30.960006 11.361971
2010-04-29 07:03:16 51°17.49 2°52.43 10.9799 3.526783 30.937226 11.361971
2010-04-29 07:03:20 51°17.504 2°52.426 10.9706 3.526783 30.937226 11.361971
2010-04-29 07:03:26 51°17.525 2°52.42 10.9547 3.525202 30.928506 11.361971
2010-04-29 07:03:31 51°17.543 2°52.415 10.9614 3.530052 30.980437 11.327147
2010-04-29 07:03:36 51°17.56 2°52.411 10.9528 3.525729 30.949023 11.396795
2010-04-29 07:03:40 51°17.574 2°52.407 10.9386 3.532161 31.023111 11.640563
2010-04-29 07:03:45 51°17.592 2°52.402 10.9464 3.532161 31.023111 11.640563
2010-04-29 07:03:51 51°17.613 2°52.396 10.9373 3.533637 31.044221 11.849508
2010-04-29 07:03:56 51°17.631 2°52.391 10.9213 3.535113 31.072066 12.197748
2010-04-29 07:04:00 51°17.645 2°52.387 10.9261 3.527733 31.008775 12.511165
2010-04-29 07:04:06 51°17.665 2°52.38 10.9109 3.522356 30.967035 12.685285
2010-04-29 07:04:11 51°17.683 2°52.375 10.9014 3.519826 30.951725 12.720109
2010-04-29 07:04:16 51°17.7 2°52.369 10.9154 3.519826 30.951725 12.720109
2010-04-29 07:04:20 51°17.714 2°52.365 10.9054 3.533638 31.096031 12.580813
2010-04-29 07:04:26 51°17.735 2°52.359 10.8928 3.52805 31.048168 12.441517
2010-04-29 07:04:31 51°17.752 2°52.353 10.8782 3.528577 31.058706 12.267396
2010-04-29 07:04:36 51°17.77 2°52.347 10.8805 3.523938 31.021447 12.1281
2010-04-29 07:04:40 51°17.784 2°52.344 10.8688 3.517929 30.974143 11.95398
2010-04-29 07:04:46 51°17.805 2°52.338 10.8488 3.528366 31.080911 11.396795
2010-04-29 07:04:51 51°17.823 2°52.333 10.8619 3.528366 31.080911 11.396795
2010-04-29 07:04:56 51°17.84 2°52.327 10.8436 3.517718 30.980822 11.257499
2010-04-29 07:05:00 51°17.854 2°52.324 10.8393 3.514028 30.950122 11.361971
2010-04-29 07:05:06 51°17.876 2°52.317 10.8322 3.509073 30.907718 11.640563
2010-04-29 07:05:11 51°17.893 2°52.312 10.8311 3.512658 30.956886 11.77986
2010-04-29 07:05:16 51°17.91 2°52.306 10.8284 3.512658 30.956886 11.77986
2010-04-29 07:05:20 51°17.924 2°52.302 10.8269 3.508019 30.914865 11.77986
2010-04-29 07:05:26 51°17.946 2°52.295 10.8196 3.519405 31.033023 11.675387
2010-04-29 07:05:31 51°17.963 2°52.29 10.8095 3.515821 31.008718 11.361971
2010-04-29 07:05:36 51°17.981 2°52.283 10.8062 3.527207 31.124973 11.257499
2010-04-29 07:05:40 51°17.995 2°52.279 10.7999 3.511709 30.977893 11.048554
2010-04-29 07:05:45 51°18.012 2°52.272 10.8012 3.511709 30.977893 11.048554
2010-04-29 07:05:51 51°18.034 2°52.266 10.7792 3.522041 31.087885 10.978906
2010-04-29 07:05:56 51°18.051 2°52.259 10.814 3.529422 31.16429 10.909258
2010-04-29 07:06:00 51°18.066 2°52.254 10.795 3.529316 31.170719 10.700314
2010-04-29 07:06:06 51°18.087 2°52.247 10.7812 3.529633 31.176536 10.595842
2010-04-29 07:06:11 51°18.105 2°52.241 10.7805 3.518984 31.079566 10.630666
2010-04-29 07:06:16 51°18.123 2°52.235 10.7843 3.529949 31.1939 10.49137
2010-04-29 07:06:20 51°18.137 2°52.23 10.7687 3.529949 31.1939 10.49137
2010-04-29 07:06:26 51°18.159 2°52.223 10.7698 3.513502 31.040011 10.49137
2010-04-29 07:06:31 51°18.176 2°52.217 10.7826 3.526681 31.180851 10.456545
2010-04-29 07:06:36 51°18.193 2°52.211 10.7703 3.521304 31.126714 10.456545
2010-04-29 07:06:41 51°18.211 2°52.205 10.7562 3.531847 31.234296 10.421721
2010-04-29 07:06:46 51°18.229 2°52.199 10.7593 3.518879 31.115125 10.386897
2010-04-29 07:06:50 51°18.243 2°52.195 10.7575 3.518879 31.115125 10.386897
2010-04-29 07:06:56 51°18.265 2°52.188 10.7629 3.51772 31.105775 10.352073
2010-04-29 07:07:00 51°18.279 2°52.183 10.7503 3.526154 31.195396 10.317249
2010-04-29 07:07:06 51°18.3 2°52.176 10.7767 3.5251 31.187761 10.177953
2010-04-29 07:07:11 51°18.318 2°52.17 10.7607 3.510445 31.044524 10.038657
2010-04-29 07:07:16 51°18.336 2°52.164 10.7457 3.522043 31.163167 9.934185
2010-04-29 07:07:20 51°18.351 2°52.159 10.7588 3.522043 31.163167 9.934185
2010-04-29 07:07:26 51°18.372 2°52.152 10.7418 3.520461 31.153749 9.829713
2010-04-29 07:07:31 51°18.39 2°52.146 10.7674 3.517298 31.124713 9.760064
2010-04-29 07:07:36 51°18.408 2°52.14 10.7505 3.528685 31.237289 9.620768
2010-04-29 07:07:40 51°18.422 2°52.136 10.7487 3.519091 31.145041 9.55112
2010-04-29 07:07:45 51°18.44 2°52.13 10.7307 3.519091 31.145041 9.55112
2010-04-29 07:07:51 51°18.461 2°52.123 10.7526 3.516244 31.116393 9.377
2010-04-29 07:07:56 51°18.479 2°52.117 10.7498 3.517931 31.135005 9.237704
2010-04-29 07:08:00 51°18.494 2°52.113 10.7281 3.527103 31.229243 9.063583
2010-04-29 07:08:05 51°18.511 2°52.107 10.7196 3.532797 31.287955 8.854639
2010-04-29 07:08:11 51°18.533 2°52.099 10.7496 3.534905 31.307326 8.680519
2010-04-29 07:08:16 51°18.551 2°52.093 10.7264 3.53364 31.2983 8.43675
2010-04-29 07:08:20 51°18.565 2°52.088 10.7177 3.53364 31.2983 8.43675
2010-04-29 07:08:25 51°18.583 2°52.082 10.7313 3.533324 31.298607 8.297454
2010-04-29 07:08:31 51°18.605 2°52.074 10.7289 3.532164 31.289249 8.08851
2010-04-29 07:08:36 51°18.623 2°52.068 10.7318 3.533746 31.304806 7.879566
2010-04-29 07:08:40 51°18.637 2°52.063 10.7175 3.532164 31.297452 7.740269
2010-04-29 07:08:46 51°18.658 2°52.055 10.7103 3.532586 31.303654 7.600973
2010-04-29 07:08:51 51°18.677 2°52.048 10.7134 3.532586 31.303654 7.600973
2010-04-29 07:08:56 51°18.694 2°52.042 10.7137 3.527315 31.253835 7.461677
2010-04-29 07:09:00 51°18.709 2°52.036 10.7126 3.52995 31.281819 7.461677
2010-04-29 07:09:05 51°18.727 2°52.03 10.703 3.531321 31.294623 7.461677
2010-04-29 07:09:11 51°18.748 2°52.022 10.7195 3.526471 31.249634 7.566149
2010-04-29 07:09:16 51°18.766 2°52.016 10.7078 3.52995 31.285238 7.705445
2010-04-29 07:09:20 51°18.781 2°52.011 10.7084 3.52995 31.285238 7.705445
2010-04-29 07:09:26 51°18.802 2°52.002 10.7228 3.533641 31.326349 7.949214
2010-04-29 07:09:31 51°18.82 2°51.996 10.7265 3.533535 31.327366 8.227806
2010-04-29 07:09:36 51°18.838 2°51.989 10.7213 3.525944 31.255376 8.610871
2010-04-29 07:09:40 51°18.852 2°51.984 10.7158 3.521832 31.217638 8.993935
2010-04-29 07:09:45 51°18.87 2°51.977 10.7401 3.521832 31.217638 8.993935
2010-04-29 07:09:51 51°18.892 2°51.969 10.7252 3.529634 31.297174 9.168055
2010-04-29 07:09:56 51°18.91 2°51.963 10.731 3.524046 31.240113 9.446648
2010-04-29 07:10:00 51°18.924 2°51.957 10.7359 3.529423 31.295098 9.655592
2010-04-29 07:10:05 51°18.942 2°51.951 10.7436 3.521305 31.211085 9.655592
2010-04-29 07:10:11 51°18.963 2°51.943 10.7392 3.517931 31.177886 9.760064
2010-04-29 07:10:16 51°18.981 2°51.936 10.7372 3.522465 31.221816 9.794888
2010-04-29 07:10:20 51°18.996 2°51.931 10.7512 3.522465 31.221816 9.794888
2010-04-29 07:10:25 51°19.014 2°51.924 10.754 3.528475 31.278915 9.899361
2010-04-29 07:10:31 51°19.035 2°51.916 10.7563 3.523625 31.228451 9.864537
2010-04-29 07:10:36 51°19.053 2°51.909 10.7714 3.525839 31.248873 9.72524
2010-04-29 07:10:40 51°19.067 2°51.904 10.777 3.519513 31.18254 9.481472
2010-04-29 07:10:46 51°19.088 2°51.896 10.7682 3.52858 31.270383 9.20288
2010-04-29 07:10:51 51°19.106 2°51.888 10.769 3.52858 31.270383 9.20288
2010-04-29 07:10:56 51°19.124 2°51.881 10.7898 3.528896 31.272128 9.063583
2010-04-29 07:11:01 51°19.142 2°51.874 10.7806 3.524679 31.228587 8.819815
2010-04-29 07:11:06 51°19.159 2°51.867 10.7858 3.518142 31.159524 8.506398
2010-04-29 07:11:11 51°19.177 2°51.859 10.7937 3.517615 31.147536 8.506398
2010-04-29 07:11:16 51°19.195 2°51.852 10.8042 3.517615 31.147536 8.506398
2010-04-29 07:11:20 51°19.209 2°51.847 10.8097 3.526787 31.23227 8.576047
2010-04-29 07:11:26 51°19.23 2°51.839 10.8131 3.523097 31.194626 8.784991
2010-04-29 07:11:31 51°19.248 2°51.832 10.8229 3.517193 31.132511 8.889463
2010-04-29 07:11:36 51°19.266 2°51.825 10.8164 3.517087 31.128077 8.889463
2010-04-29 07:11:40 51°19.28 2°51.82 10.8372 3.516771 31.122251 8.889463
2010-04-29 07:11:46 51°19.302 2°51.811 10.8277 3.521094 31.160645 8.889463
2010-04-29 07:11:51 51°19.32 2°51.805 10.8351 3.521094 31.160645 8.889463
2010-04-29 07:11:56 51°19.337 2°51.798 10.8381 3.5154 31.101318 8.993935
2010-04-29 07:12:00 51°19.351 2°51.792 10.8448 3.520145 31.140448 9.028759
2010-04-29 07:12:05 51°19.369 2°51.785 10.8569 3.513819 31.072903 9.20288
2010-04-29 07:12:11 51°19.391 2°51.777 10.8479 3.51403 31.068874 9.446648
2010-04-29 07:12:16 51°19.408 2°51.769 10.8469 3.522042 31.142103 9.829713
2010-04-29 07:12:20 51°19.422 2°51.763 10.8593 3.522042 31.142103 9.829713
2010-04-29 07:12:25 51°19.44 2°51.756 10.8618 3.51424 31.060784 10.177953
2010-04-29 07:12:30 51°19.458 2°51.749 10.8549 3.513502 31.050835 10.282425
2010-04-29 07:12:36 51°19.479 2°51.74 10.8604 3.51171 31.02987 10.177953
2010-04-29 07:12:40 51°19.494 2°51.734 10.8547 3.524256 31.146184 10.003833
2010-04-29 07:12:45 51°19.511 2°51.727 10.8611 3.512659 31.029035 9.864537
2010-04-29 07:12:51 51°19.533 2°51.718 10.8667 3.512659 31.029035 9.864537
2010-04-29 07:12:56 51°19.55 2°51.711 10.8757 3.515189 31.05182 9.655592
2010-04-29 07:13:00 51°19.564 2°51.705 10.8953 3.521515 31.111154 9.585944
2010-04-29 07:13:05 51°19.582 2°51.697 10.8916 3.519301 31.086052 9.516296
2010-04-29 07:13:11 51°19.603 2°51.689 10.9026 3.515927 31.051617 9.411824
2010-04-29 07:13:16 51°19.621 2°51.681 10.9115 3.515927 31.051617 9.411824
2010-04-29 07:13:21 51°19.638 2°51.674 10.9237 3.510023 30.993062 9.133231
2010-04-29 07:13:26 51°19.656 2°51.667 10.9374 3.520566 31.095751 8.889463
2010-04-29 07:13:30 51°19.67 2°51.662 10.941 3.522253 31.108229 8.610871
2010-04-29 07:13:36 51°19.691 2°51.653 10.9539 3.520671 31.090014 8.401926
2010-04-29 07:13:41 51°19.709 2°51.646 10.9688 3.522463 31.098785 8.367102
2010-04-29 07:13:46 51°19.726 2°51.639 10.946 3.51793 31.04827 8.541223
2010-04-29 07:13:51 51°19.744 2°51.634 11.2089 3.51793 31.04827 8.541223
2010-04-29 07:13:56 51°19.762 2°51.629 11.4162 3.518035 31.041198 8.645695
2010-04-29 07:14:00 51°19.776 2°51.625 11.4736 3.519933 31.051007 8.541223
2010-04-29 07:14:06 51°19.797 2°51.62 11.1232 3.516981 31.012656 8.26263
2010-04-29 07:14:11 51°19.815 2°51.616 11.0254 3.51814 31.015919 8.018862
2010-04-29 07:14:16 51°19.833 2°51.612 11.0109 3.516769 30.990382 8.158158
2010-04-29 07:14:20 51°19.847 2°51.609 11.0101 3.516769 30.990382 8.158158
2010-04-29 07:14:26 51°19.869 2°51.604 10.996 3.519089 31.00028 8.819815
2010-04-29 07:14:31 51°19.886 2°51.6 10.9987 3.523411 31.003518 9.063583
2010-04-29 07:14:36 51°19.904 2°51.596 10.9957 3.541754 31.056913 8.471574
2010-04-29 07:14:40 51°19.918 2°51.593 11.0014 3.546498 31.04817 7.705445
2010-04-29 07:14:46 51°19.939 2°51.588 11.0123 3.546498 31.04817 7.705445
2010-04-29 07:14:51 51°19.957 2°51.585 11.0086 3.535955 30.991761 7.217908
2010-04-29 07:14:56 51°19.975 2°51.581 11.0119 3.528787 30.981501 6.904492
2010-04-29 07:15:00 51°19.989 2°51.578 11.0302 3.522988 30.957116 6.765196
2010-04-29 07:15:05 51°20.007 2°51.574 11.0382 3.519404 30.938223 6.730372
2010-04-29 07:15:10 51°20.025 2°51.57 11.0421 3.516769 30.92724 6.6259
2010-04-29 07:15:16 51°20.046 2°51.566 11.0472 3.512973 30.896886 6.591076
2010-04-29 07:15:21 51°20.064 2°51.562 11.0486 3.512973 30.896886 6.591076
2010-04-29 07:15:26 51°20.081 2°51.558 11.0462 3.51466 30.915366 6.486603
2010-04-29 07:15:30 51°20.095 2°51.555 11.0489 3.513079 30.898585 6.382131
2010-04-29 07:15:36 51°20.117 2°51.551 11.0524 3.510865 30.876969 6.312483
2010-04-29 07:15:40 51°20.131 2°51.547 11.0459 3.510443 30.864824 6.208011
2010-04-29 07:15:46 51°20.152 2°51.543 11.0406 3.50496 30.805316 6.103539
2010-04-29 07:15:51 51°20.17 2°51.539 11.0546 3.50496 30.805316 6.103539
2010-04-29 07:15:56 51°20.188 2°51.535 11.0464 3.505382 30.804091 6.068715
2010-04-29 07:16:00 51°20.202 2°51.532 11.0446 3.504749 30.793252 6.068715
2010-04-29 07:16:06 51°20.224 2°51.527 11.0479 3.506753 30.812121 6.138363
2010-04-29 07:16:11 51°20.241 2°51.523 11.0543 3.506014 30.802922 6.208011
2010-04-29 07:16:16 51°20.259 2°51.519 11.0616 3.503906 30.780361 6.312483
2010-04-29 07:16:20 51°20.274 2°51.516 11.062 3.503906 30.780361 6.312483
2010-04-29 07:16:26 51°20.295 2°51.511 11.0436 3.504328 30.785139 6.486603
2010-04-29 07:16:31 51°20.313 2°51.507 11.0466 3.504328 30.78314 6.730372
2010-04-29 07:16:36 51°20.332 2°51.503 11.0505 3.504433 30.785501 7.008964
2010-04-29 07:16:40 51°20.346 2°51.5 11.0453 3.502852 30.770082 7.357205
2010-04-29 07:16:45 51°20.364 2°51.496 11.0643 3.502852 30.770082 7.357205
2010-04-29 07:16:51 51°20.386 2°51.492 11.0262 3.503484 30.775583 7.809917
2010-04-29 07:16:56 51°20.404 2°51.488 11.0315 3.503695 30.774973 8.332278
2010-04-29 07:17:00 51°20.419 2°51.485 11.0215 3.504328 30.777808 8.924287
2010-04-29 07:17:05 51°20.437 2°51.481 11.0197 3.500427 30.743112 9.307352
2010-04-29 07:17:11 51°20.459 2°51.477 11.0292 3.500427 30.745109 9.690416
2010-04-29 07:17:16 51°20.477 2°51.472 11.0239 3.505066 30.790335 10.177953
2010-04-29 07:17:20 51°20.491 2°51.469 11.0281 3.505066 30.790335 10.177953
2010-04-29 07:17:26 51°20.513 2°51.464 11.024 3.505487 30.79378 10.874434
2010-04-29 07:17:31 51°20.531 2°51.46 11.001 3.501587 30.760411 11.292323
2010-04-29 07:17:36 51°20.549 2°51.456 10.9981 3.505593 30.804146 11.675387
2010-04-29 07:17:40 51°20.563 2°51.453 11.0056 3.505382 30.808763 11.95398
2010-04-29 07:17:46 51°20.585 2°51.448 11.0114 3.50106 30.767265 12.1281
2010-04-29 07:17:51 51°20.603 2°51.444 11.0096 3.50106 30.767265 12.1281
2010-04-29 07:17:56 51°20.622 2°51.44 10.9911 3.505066 30.809682 12.093276
2010-04-29 07:18:00 51°20.636 2°51.437 11.0008 3.50496 30.808654 12.162924
2010-04-29 07:18:05 51°20.654 2°51.433 10.9996 3.50475 30.809267 12.197748
2010-04-29 07:18:11 51°20.676 2°51.428 11.0121 3.503801 30.805349 12.162924
2010-04-29 07:18:16 51°20.694 2°51.424 11.0036 3.503801 30.805349 12.162924
2010-04-29 07:18:20 51°20.709 2°51.42 11.0137 3.502957 30.799789 11.919156
2010-04-29 07:18:26 51°20.731 2°51.415 10.9969 3.502536 30.797676 11.884332
2010-04-29 07:18:31 51°20.749 2°51.41 11.0049 3.501587 30.790419 11.849508
2010-04-29 07:18:36 51°20.767 2°51.406 11.0083 3.500849 30.787221 11.814684
2010-04-29 07:18:40 51°20.782 2°51.402 11.017 3.500006 30.780323 11.814684
2010-04-29 07:18:46 51°20.804 2°51.397 11.0164 3.495367 30.73305 11.919156
2010-04-29 07:18:51 51°20.822 2°51.392 11.0196 3.495367 30.73305 11.919156
2010-04-29 07:18:56 51°20.84 2°51.387 11.0166 3.496948 30.747816 11.95398
2010-04-29 07:19:00 51°20.855 2°51.384 11.0074 3.499057 30.766392 12.023628
2010-04-29 07:19:05 51°20.873 2°51.38 11.0066 3.499268 30.772453 11.884332
2010-04-29 07:19:11 51°20.895 2°51.375 11.0224 3.499057 30.769061 11.710211
2010-04-29 07:19:16 51°20.913 2°51.37 11.0414 3.49853 30.760581 11.536091
2010-04-29 07:19:20 51°20.928 2°51.367 11.0531 3.49853 30.760581 11.536091
2010-04-29 07:19:26 51°20.95 2°51.361 11.0723 3.498213 30.756161 11.396795
2010-04-29 07:19:30 51°20.965 2°51.358 11.0614 3.492626 30.700313 11.327147
2010-04-29 07:19:36 51°20.986 2°51.352 11.0681 3.492731 30.701341 11.257499
2010-04-29 07:19:40 51°21.001 2°51.349 11.0749 3.496316 30.736312 11.048554
2010-04-29 07:19:46 51°21.023 2°51.343 11.0702 3.491782 30.69142 10.630666
2010-04-29 07:19:51 51°21.041 2°51.339 11.0672 3.491782 30.69142 10.630666
2010-04-29 07:19:56 51°21.06 2°51.335 11.0764 3.494207 30.708418 10.038657
2010-04-29 07:20:01 51°21.078 2°51.33 11.0721 3.491677 30.67377 9.585944
2010-04-29 07:20:06 51°21.096 2°51.326 11.0818 3.490411 30.650813 9.307352
2010-04-29 07:20:11 51°21.115 2°51.321 11.0896 3.487354 30.615055 9.272528
2010-04-29 07:20:16 51°21.133 2°51.317 11.0842 3.487354 30.615055 9.272528
2010-04-29 07:20:20 51°21.148 2°51.313 11.081 3.487248 30.609389 9.307352
2010-04-29 07:20:26 51°21.17 2°51.308 11.0893 3.491676 30.650532 9.342176
2010-04-29 07:20:31 51°21.188 2°51.304 11.089 3.486405 30.597863 9.237704
2010-04-29 07:20:36 51°21.206 2°51.299 11.0902 3.488935 30.619855 9.133231
2010-04-29 07:20:40 51°21.221 2°51.296 11.1098 3.487248 30.602765 8.993935
2010-04-29 07:20:46 51°21.243 2°51.29 11.0988 3.488935 30.615217 8.854639
2010-04-29 07:20:51 51°21.262 2°51.286 11.1012 3.488935 30.615217 8.854639
2010-04-29 07:20:56 51°21.28 2°51.281 11.1086 3.490727 30.628694 8.680519
2010-04-29 07:21:00 51°21.295 2°51.278 11.1176 3.484507 30.566813 8.541223
2010-04-29 07:21:05 51°21.313 2°51.273 11.1326 3.48767 30.596278 8.471574
2010-04-29 07:21:11 51°21.335 2°51.267 11.1218 3.489462 30.611078 8.332278
2010-04-29 07:21:16 51°21.354 2°51.263 11.1018 3.489884 30.610549 8.227806
2010-04-29 07:21:20 51°21.369 2°51.259 11.0942 3.489884 30.610549 8.227806
2010-04-29 07:21:25 51°21.387 2°51.254 11.0982 3.490095 30.609953 8.08851
2010-04-29 07:21:31 51°21.409 2°51.248 11.116 3.48514 30.55975 7.879566
2010-04-29 07:21:36 51°21.428 2°51.242 11.1139 3.483664 30.543408 7.705445
2010-04-29 07:21:40 51°21.442 2°51.238 11.1242 3.488618 30.585668 7.531325
2010-04-29 07:21:45 51°21.461 2°51.232 11.1181 3.48398 30.537242 7.392029
2010-04-29 07:21:51 51°21.483 2°51.224 11.1297 3.48398 30.537242 7.392029
2010-04-29 07:21:56 51°21.501 2°51.218 11.1149 3.488513 30.58332 7.252733
2010-04-29 07:22:00 51°21.516 2°51.212 11.1187 3.488513 30.589932 7.043788
2010-04-29 07:22:05 51°21.534 2°51.205 11.1208 3.483874 30.544138 6.904492
2010-04-29 07:22:11 51°21.556 2°51.196 11.1177 3.482188 30.524429 6.730372
2010-04-29 07:22:16 51°21.575 2°51.187 11.1176 3.482188 30.524429 6.730372
2010-04-29 07:22:21 51°21.593 2°51.178 11.1221 3.481766 30.51637 6.521427
2010-04-29 07:22:26 51°21.61 2°51.167 11.1044 3.48166 30.512047 6.277659
2010-04-29 07:22:30 51°21.624 2°51.156 11.0899 3.486299 30.554518 6.103539
2010-04-29 07:22:36 51°21.642 2°51.135 11.0944 3.480712 30.502162 5.929418
2010-04-29 07:22:41 51°21.655 2°51.113 11.1011 3.484928 30.54449 5.894594
2010-04-29 07:22:46 51°21.666 2°51.089 11.0919 3.480606 30.501137 5.894594
2010-04-29 07:22:51 51°21.673 2°51.061 11.089 3.480606 30.501137 5.894594
2010-04-29 07:22:56 51°21.679 2°51.032 11.0918 3.479974 30.496304 6.103539
2010-04-29 07:23:00 51°21.682 2°51.008 11.0981 3.484928 30.54449 6.451779
2010-04-29 07:23:05 51°21.688 2°50.978 11.1185 3.487353 30.575343 6.765196
2010-04-29 07:23:11 51°21.697 2°50.943 11.1594 3.486299 30.569712 7.008964
2010-04-29 07:23:16 51°21.707 2°50.915 11.1063 3.487248 30.58225 7.183084
2010-04-29 07:23:20 51°21.712 2°50.89 11.0926 3.487248 30.58225 7.183084
2010-04-29 07:23:26 51°21.722 2°50.855 11.1071 3.48767 30.589662 7.357205
2010-04-29 07:23:31 51°21.73 2°50.824 11.071 3.487881 30.593037 7.357205
2010-04-29 07:23:36 51°21.738 2°50.793 11.057 3.488513 30.598532 7.357205
2010-04-29 07:23:40 51°21.744 2°50.769 11.0857 3.487564 30.584667 7.287557
2010-04-29 07:23:46 51°21.753 2°50.732 11.087 3.487564 30.584667 7.287557
2010-04-29 07:23:50 51°21.761 2°50.709 11.0755 3.490516 30.602147 7.496501
2010-04-29 07:23:56 51°21.772 2°50.673 11.0579 3.492203 30.611281 7.566149
2010-04-29 07:24:01 51°21.782 2°50.644 11.0807 3.492203 30.617897 7.461677
2010-04-29 07:24:06 51°21.792 2°50.616 11.099 3.491676 30.618063 7.461677
2010-04-29 07:24:11 51°21.803 2°50.589 11.1453 3.491781 30.626371 7.461677
2010-04-29 07:24:16 51°21.817 2°50.57 11.1491 3.490833 30.62707 7.461677
2010-04-29 07:24:20 51°21.829 2°50.558 11.1202 3.490833 30.62707 7.461677
2010-04-29 07:24:26 51°21.848 2°50.546 11.1071 3.48282 30.549733 7.461677
2010-04-29 07:24:31 51°21.865 2°50.541 11.0713 3.491254 30.633827 7.322381
2010-04-29 07:24:36 51°21.882 2°50.536 11.0548 3.490938 30.636712 7.252733
2010-04-29 07:24:40 51°21.896 2°50.532 11.0703 3.491992 30.642339 7.14826
2010-04-29 07:24:46 51°21.918 2°50.528 11.0857 3.494839 30.656133 7.14826
2010-04-29 07:24:51 51°21.936 2°50.524 11.0823 3.494839 30.656133 7.14826
2010-04-29 07:24:56 51°21.954 2°50.52 11.0621 3.496209 30.646944 6.939316
2010-04-29 07:25:00 51°21.969 2°50.516 11.0472 3.496947 30.65015 6.834844
2010-04-29 07:25:06 51°21.991 2°50.511 11.0511 3.498107 30.665406 6.6259
2010-04-29 07:25:11 51°22.01 2°50.505 11.0471 3.497685 30.67257 6.451779
2010-04-29 07:25:16 51°22.028 2°50.496 11.0538 3.496947 30.683295 6.486603
2010-04-29 07:25:20 51°22.041 2°50.486 11.0453 3.496947 30.683295 6.486603
2010-04-29 07:25:26 51°22.062 2°50.47 11.0527 3.495155 30.665843 6.521427
2010-04-29 07:25:31 51°22.08 2°50.464 11.084 3.497475 30.692412 6.6259
2010-04-29 07:25:36 51°22.097 2°50.462 11.0963 3.496737 30.692528 6.660724
2010-04-29 07:25:40 51°22.111 2°50.463 11.0873 3.495999 30.697296 6.834844
2010-04-29 07:25:45 51°22.127 2°50.47 11.1096 3.495999 30.697296 6.834844
2010-04-29 07:25:51 51°22.145 2°50.484 11.1303 3.495261 30.694756 6.97414
2010-04-29 07:25:56 51°22.157 2°50.5 11.1247 3.494628 30.690584 7.113436
2010-04-29 07:26:00 51°22.165 2°50.514 11.119 3.492309 30.668643 7.217908
2010-04-29 07:26:05 51°22.174 2°50.535 11.1133 3.494101 30.682125 7.322381
2010-04-29 07:26:11 51°22.181 2°50.562 11.1023 3.495788 30.687269 7.078612
2010-04-29 07:26:16 51°22.188 2°50.585 11.0785 3.49758 30.692111 7.078612
2010-04-29 07:26:20 51°22.193 2°50.604 11.068 3.49758 30.692111 7.078612
2010-04-29 07:26:26 51°22.202 2°50.631 11.0628 3.498212 30.688977 7.113436
2010-04-29 07:26:31 51°22.211 2°50.653 11.0649 3.498739 30.680178 7.14826
2010-04-29 07:26:36 51°22.22 2°50.676 11.0622 3.500953 30.695092 7.183084
2010-04-29 07:26:40 51°22.228 2°50.694 11.058 3.501059 30.697444 7.043788
2010-04-29 07:26:46 51°22.239 2°50.721 11.0607 3.50148 30.706193 6.97414
2010-04-29 07:26:51 51°22.248 2°50.744 11.0644 3.50148 30.706193 6.97414
2010-04-29 07:26:56 51°22.257 2°50.766 11.0517 3.500743 30.706974 6.97414
2010-04-29 07:27:01 51°22.267 2°50.789 11.0538 3.500321 30.712165 7.043788
2010-04-29 07:27:06 51°22.276 2°50.812 11.0558 3.499583 30.716936 7.113436
2010-04-29 07:27:11 51°22.284 2°50.835 11.037 3.499267 30.720502 7.14826
2010-04-29 07:27:16 51°22.293 2°50.859 11.0206 3.499267 30.720502 7.14826
2010-04-29 07:27:20 51°22.301 2°50.877 11.0475 3.499056 30.721771 7.113436
2010-04-29 07:27:26 51°22.313 2°50.903 11.0267 3.498845 30.722377 7.113436
2010-04-29 07:27:31 51°22.323 2°50.925 11.0032 3.49874 30.722014 7.078612
2010-04-29 07:27:36 51°22.334 2°50.944 11.0213 3.498529 30.723285 6.97414
2010-04-29 07:27:40 51°22.344 2°50.959 10.9895 3.498634 30.724312 6.904492
2010-04-29 07:27:46 51°22.361 2°50.977 10.9691 3.498634 30.724312 6.904492
2010-04-29 07:27:51 51°22.375 2°50.989 10.9784 3.498529 30.726611 6.869668
2010-04-29 07:27:56 51°22.391 2°51 10.9382 3.498846 30.738346 6.834844
2010-04-29 07:28:01 51°22.407 2°51.006 10.9201 3.498002 30.735448 6.765196
2010-04-29 07:28:06 51°22.424 2°51.01 10.9509 3.49874 30.747308 6.730372
2010-04-29 07:28:11 51°22.441 2°51.012 10.9521 3.498108 30.748467 6.660724
2010-04-29 07:28:16 51°22.459 2°51.009 10.9518 3.497792 30.756047 6.695548
2010-04-29 07:28:20 51°22.473 2°51.006 10.9628 3.497792 30.756047 6.695548
2010-04-29 07:28:26 51°22.494 2°51.003 10.9673 3.498319 30.771866 6.765196
2010-04-29 07:28:31 51°22.512 2°50.997 10.9843 3.498319 30.784553 6.834844
2010-04-29 07:28:36 51°22.53 2°50.994 10.9805 3.499057 30.8058 6.904492
2010-04-29 07:28:40 51°22.544 2°50.989 10.9845 3.498847 30.817122 6.834844
2010-04-29 07:28:45 51°22.562 2°50.986 10.9692 3.498847 30.817122 6.834844
2010-04-29 07:28:51 51°22.584 2°50.981 10.9822 3.498741 30.81743 6.660724
2010-04-29 07:28:56 51°22.602 2°50.977 10.9702 3.498319 30.8113 6.521427
2010-04-29 07:29:00 51°22.616 2°50.972 10.9756 3.497898 30.803163 6.312483
2010-04-29 07:29:06 51°22.638 2°50.967 10.9489 3.498003 30.796836 6.277659
2010-04-29 07:29:11 51°22.656 2°50.961 10.9622 3.497792 30.790764 6.277659
2010-04-29 07:29:16 51°22.674 2°50.957 10.959 3.497792 30.790764 6.277659
2010-04-29 07:29:20 51°22.689 2°50.953 10.9487 3.497792 30.786754 6.312483
2010-04-29 07:29:26 51°22.71 2°50.948 10.9178 3.497792 30.785418 6.486603
2010-04-29 07:29:31 51°22.728 2°50.943 10.8959 3.498108 30.787839 6.695548
2010-04-29 07:29:36 51°22.746 2°50.939 10.8686 3.498319 30.791904 6.97414
2010-04-29 07:29:40 51°22.76 2°50.936 10.8224 3.49853 30.7953 7.14826
2010-04-29 07:29:46 51°22.781 2°50.932 10.771 3.498319 30.798589 7.357205
2010-04-29 07:29:51 51°22.799 2°50.931 10.7621 3.498319 30.798589 7.357205
2010-04-29 07:29:56 51°22.816 2°50.934 10.721 3.498741 30.806054 7.496501
2010-04-29 07:30:00 51°22.829 2°50.938 10.6557 3.499163 30.81419 7.670621
2010-04-29 07:30:05 51°22.845 2°50.943 10.5485 3.499163 30.82959 7.670621
2010-04-29 07:30:11 51°22.866 2°50.946 10.5315 3.49969 30.851506 7.670621
2010-04-29 07:30:16 51°22.883 2°50.95 10.5281 3.500956 30.888064 7.670621
2010-04-29 07:30:20 51°22.896 2°50.951 10.4931 3.500956 30.888064 7.670621
2010-04-29 07:30:26 51°22.917 2°50.956 10.4944 3.502116 30.925672 7.705445
2010-04-29 07:30:31 51°22.934 2°50.958 10.4559 3.502749 30.97371 7.949214
2010-04-29 07:30:36 51°22.951 2°50.962 10.4416 3.503593 31.012439 8.08851
2010-04-29 07:30:40 51°22.965 2°50.964 10.4459 3.505596 31.066052 8.053686
2010-04-29 07:30:45 51°22.982 2°50.968 10.4087 3.505596 31.066052 8.053686
2010-04-29 07:30:51 51°23.003 2°50.974 10.4165 3.506124 31.139349 7.949214
2010-04-29 07:30:56 51°23.019 2°50.978 10.3835 3.505703 31.172099 7.809917
2010-04-29 07:31:00 51°23.033 2°50.982 10.363 3.505387 31.199802 7.775093
2010-04-29 07:31:06 51°23.053 2°50.987 10.3499 3.504439 31.215813 7.844741
2010-04-29 07:31:11 51°23.07 2°50.992 10.3673 3.504439 31.236428 7.809917
2010-04-29 07:31:16 51°23.087 2°50.996 10.3347 3.504439 31.236428 7.809917
2010-04-29 07:31:20 51°23.1 2°50.999 10.3324 3.503385 31.244569 7.705445
2010-04-29 07:31:26 51°23.121 2°51.003 10.3285 3.502542 31.256877 7.670621
2010-04-29 07:31:31 51°23.138 2°51.007 10.3237 3.50212 31.267865 7.600973
2010-04-29 07:31:36 51°23.155 2°51.01 10.3082 3.501699 31.280246 7.531325
2010-04-29 07:31:40 51°23.168 2°51.014 10.3107 3.501699 31.298898 7.566149
2010-04-29 07:31:46 51°23.188 2°51.019 10.28 3.501805 31.311701 7.566149
2010-04-29 07:31:51 51°23.205 2°51.023 10.2843 3.501805 31.311701 7.566149
2010-04-29 07:31:56 51°23.221 2°51.027 10.309 3.500751 31.315075 7.635797
2010-04-29 07:32:00 51°23.235 2°51.031 10.2859 3.502121 31.341851 7.705445
2010-04-29 07:32:05 51°23.252 2°51.036 10.2665 3.501805 31.346335 7.670621
2010-04-29 07:32:11 51°23.272 2°51.042 10.2622 3.503281 31.36725 7.705445
2010-04-29 07:32:16 51°23.288 2°51.045 10.2617 3.50286 31.374861 7.740269
2010-04-29 07:32:20 51°23.302 2°51.048 10.257 3.50286 31.374861 7.740269
2010-04-29 07:32:26 51°23.322 2°51.053 10.2823 3.502965 31.389113 7.775093
2010-04-29 07:32:31 51°23.339 2°51.057 10.2698 3.50286 31.395713 7.775093
2010-04-29 07:32:36 51°23.355 2°51.062 10.2717 3.503071 31.400594 7.809917
2010-04-29 07:32:40 51°23.369 2°51.066 10.2442 3.503598 31.412104 7.879566
2010-04-29 07:32:45 51°23.385 2°51.071 10.2463 3.503598 31.412104 7.879566
2010-04-29 07:32:51 51°23.406 2°51.076 10.2574 3.50286 31.413113 7.844741
2010-04-29 07:32:56 51°23.422 2°51.081 10.2512 3.50286 31.419382 7.775093
2010-04-29 07:33:00 51°23.436 2°51.084 10.2606 3.502333 31.418312 7.809917
2010-04-29 07:33:06 51°23.456 2°51.088 10.2561 3.502544 31.415536 7.740269
2010-04-29 07:33:11 51°23.473 2°51.092 10.2737 3.502122 31.41064 7.740269
2010-04-29 07:33:16 51°23.49 2°51.096 10.2529 3.502228 31.416566 7.740269
2010-04-29 07:33:20 51°23.503 2°51.099 10.2647 3.502228 31.416566 7.740269
2010-04-29 07:33:26 51°23.523 2°51.104 10.2668 3.501701 31.418283 7.670621
2010-04-29 07:33:31 51°23.54 2°51.108 10.276 3.50149 31.419668 7.670621
2010-04-29 07:33:36 51°23.558 2°51.11 10.2843 3.500963 31.41581 7.566149
2010-04-29 07:33:41 51°23.574 2°51.114 10.2695 3.501385 31.417921 7.635797
2010-04-29 07:33:46 51°23.592 2°51.117 10.276 3.500963 31.412326 7.496501
2010-04-29 07:33:50 51°23.605 2°51.12 10.2595 3.500963 31.412326 7.496501
2010-04-29 07:33:56 51°23.626 2°51.124 10.2905 3.501068 31.414073 7.461677
2010-04-29 07:34:00 51°23.639 2°51.127 10.2718 3.500647 31.408478 7.426853
2010-04-29 07:34:06 51°23.66 2°51.132 10.2718 3.500436 31.402199 7.357205
2010-04-29 07:34:11 51°23.677 2°51.135 10.2619 3.499908 31.392075 7.461677
2010-04-29 07:34:16 51°23.694 2°51.138 10.2837 3.500014 31.39034 7.461677
2010-04-29 07:34:20 51°23.708 2°51.141 10.2658 3.500014 31.39034 7.461677
2010-04-29 07:34:26 51°23.728 2°51.144 10.2711 3.500014 31.391733 7.496501
2010-04-29 07:34:31 51°23.745 2°51.147 10.2634 3.499908 31.392771 7.566149
2010-04-29 07:34:36 51°23.762 2°51.15 10.2382 3.499381 31.38613 7.635797
2010-04-29 07:34:40 51°23.776 2°51.153 10.2455 3.499065 31.384373 7.635797
2010-04-29 07:34:45 51°23.793 2°51.156 10.2389 3.499065 31.384373 7.635797
2010-04-29 07:34:51 51°23.814 2°51.161 10.2393 3.498854 31.382969 7.705445
2010-04-29 07:34:56 51°23.831 2°51.164 10.2345 3.499065 31.385069 7.879566
2010-04-29 07:35:00 51°23.845 2°51.166 10.2187 3.499487 31.389268 8.018862
2010-04-29 07:35:06 51°23.865 2°51.17 10.2191 3.499698 31.393456 8.158158
2010-04-29 07:35:11 51°23.882 2°51.174 10.2281 3.499909 31.401127 8.297454
2010-04-29 07:35:16 51°23.899 2°51.178 10.2034 3.500119 31.411589 8.297454
2010-04-29 07:35:20 51°23.913 2°51.18 10.207 3.500119 31.411589 8.297454
2010-04-29 07:35:26 51°23.933 2°51.184 10.1881 3.500014 31.415419 8.43675
2010-04-29 07:35:31 51°23.95 2°51.188 10.1925 3.50012 31.418561 8.471574
2010-04-29 07:35:36 51°23.967 2°51.192 10.1859 3.500225 31.423099 8.610871
2010-04-29 07:35:41 51°23.985 2°51.195 10.187 3.499909 31.426225 8.750167
2010-04-29 07:35:46 51°24.002 2°51.199 10.1746 3.500225 31.432867 8.959111
2010-04-29 07:35:50 51°24.016 2°51.202 10.1768 3.500225 31.432867 8.959111
2010-04-29 07:35:56 51°24.036 2°51.206 10.1681 3.500436 31.441253 9.168055
2010-04-29 07:36:00 51°24.05 2°51.209 10.1666 3.500225 31.446135 9.342176
2010-04-29 07:36:06 51°24.071 2°51.213 10.1585 3.50012 31.454168 9.481472
2010-04-29 07:36:11 51°24.088 2°51.216 10.1574 3.500015 31.456611 9.55112
2010-04-29 07:36:16 51°24.105 2°51.219 10.1415 3.499909 31.460454 9.516296
2010-04-29 07:36:20 51°24.119 2°51.221 10.1474 3.499909 31.460454 9.516296
2010-04-29 07:36:26 51°24.14 2°51.225 10.1495 3.499488 31.460442 9.585944
2010-04-29 07:36:31 51°24.157 2°51.227 10.1517 3.499699 31.466744 9.620768
2010-04-29 07:36:36 51°24.174 2°51.23 10.1521 3.499382 31.468485 9.72524
2010-04-29 07:36:40 51°24.188 2°51.232 10.1349 3.499488 31.473037 9.794888
2010-04-29 07:36:45 51°24.205 2°51.235 10.1411 3.499488 31.473037 9.794888
2010-04-29 07:36:51 51°24.226 2°51.238 10.1292 3.499699 31.479344 9.864537
2010-04-29 07:36:56 51°24.243 2°51.242 10.141 3.499488 31.482842 9.829713
2010-04-29 07:37:00 51°24.256 2°51.243 10.1348 3.499383 31.488095 9.829713
2010-04-29 07:37:06 51°24.277 2°51.247 10.1218 3.499172 31.488791 9.794888
2010-04-29 07:37:11 51°24.294 2°51.25 10.1385 3.499277 31.491247 9.760064
2010-04-29 07:37:16 51°24.312 2°51.253 10.1325 3.499594 31.49651 9.690416
2010-04-29 07:37:20 51°24.325 2°51.255 10.13 3.499594 31.49651 9.690416
2010-04-29 07:37:26 51°24.346 2°51.258 10.1357 3.499172 31.495101 9.55112
2010-04-29 07:37:30 51°24.36 2°51.261 10.1425 3.499488 31.50247 9.446648
2010-04-29 07:37:36 51°24.381 2°51.264 10.1439 3.499067 31.500359 9.446648
2010-04-29 07:37:41 51°24.398 2°51.267 10.1471 3.499067 31.503867 9.237704
2010-04-29 07:37:46 51°24.415 2°51.27 10.162 3.499067 31.503867 9.237704
2010-04-29 07:37:50 51°24.429 2°51.271 10.1583 3.498645 31.501055 9.133231
2010-04-29 07:37:56 51°24.449 2°51.275 10.1759 3.498223 31.497541 9.028759
2010-04-29 07:38:01 51°24.467 2°51.277 10.1742 3.498329 31.499296 8.889463
2010-04-29 07:38:06 51°24.484 2°51.281 10.1751 3.497907 31.493678 8.715343
2010-04-29 07:38:11 51°24.501 2°51.282 10.1836 3.497696 31.487362 8.541223
2010-04-29 07:38:16 51°24.518 2°51.285 10.1827 3.497696 31.487362 8.541223
2010-04-29 07:38:20 51°24.532 2°51.287 10.1917 3.497169 31.478589 8.297454
2010-04-29 07:38:26 51°24.552 2°51.29 10.1958 3.497063 31.473331 8.08851
2010-04-29 07:38:31 51°24.569 2°51.293 10.1907 3.497063 31.468427 7.809917
2010-04-29 07:38:36 51°24.587 2°51.296 10.2018 3.496958 31.463171 7.566149
2010-04-29 07:38:40 51°24.6 2°51.298 10.194 3.497063 31.457224 7.252733
2010-04-29 07:38:46 51°24.621 2°51.302 10.199 3.496747 31.450566 7.043788
2010-04-29 07:38:51 51°24.638 2°51.304 10.1992 3.496747 31.450566 7.043788
2010-04-29 07:38:56 51°24.655 2°51.308 10.2033 3.496852 31.446722 6.904492
2010-04-29 07:39:00 51°24.669 2°51.31 10.2081 3.497063 31.44533 6.660724
2010-04-29 07:39:06 51°24.689 2°51.313 10.1974 3.497274 31.443938 6.521427
2010-04-29 07:39:11 51°24.706 2°51.316 10.1987 3.496957 31.437985 6.312483
2010-04-29 07:39:16 51°24.723 2°51.319 10.1964 3.497695 31.441855 6.312483
2010-04-29 07:39:20 51°24.737 2°51.321 10.1951 3.497695 31.441855 6.312483
2010-04-29 07:39:26 51°24.757 2°51.325 10.1923 3.497695 31.441156 6.173187
2010-04-29 07:39:30 51°24.771 2°51.326 10.1971 3.496536 31.428185 6.033891
2010-04-29 07:39:36 51°24.791 2°51.331 10.1949 3.497906 31.439765 5.894594
2010-04-29 07:39:40 51°24.805 2°51.332 10.1961 3.498117 31.440472 5.755298
2010-04-29 07:39:46 51°24.825 2°51.336 10.1848 3.498012 31.43942 5.616002
2010-04-29 07:39:50 51°24.839 2°51.338 10.184 3.498012 31.43942 5.616002
2010-04-29 07:39:56 51°24.859 2°51.342 10.1891 3.498117 31.441869 5.372234
2010-04-29 07:40:01 51°24.877 2°51.344 10.1877 3.498222 31.444319 5.093641
2010-04-29 07:40:06 51°24.894 2°51.347 10.1737 3.498117 31.445364 4.954345
2010-04-29 07:40:11 51°24.91 2°51.349 10.1694 3.496536 31.428185 4.815049
2010-04-29 07:40:16 51°24.927 2°51.353 10.1678 3.496536 31.428185 4.815049
2010-04-29 07:40:20 51°24.941 2°51.355 10.169 3.49875 31.450279 4.849873
2010-04-29 07:40:26 51°24.961 2°51.359 10.1674 3.498961 31.454481 4.849873
2010-04-29 07:40:31 51°24.978 2°51.362 10.1567 3.497695 31.44535 4.954345
2010-04-29 07:40:36 51°24.995 2°51.365 10.1601 3.497801 31.447102 4.954345
2010-04-29 07:40:40 51°25.009 2°51.366 10.1716 3.498433 31.456214 4.884697
2010-04-29 07:40:46 51°25.029 2°51.37 10.1557 3.49875 31.463569 4.849873
2010-04-29 07:40:51 51°25.046 2°51.372 10.1531 3.49875 31.463569 4.849873
2010-04-29 07:40:56 51°25.063 2°51.376 10.1594 3.496536 31.445663 4.849873
2010-04-29 07:41:00 51°25.077 2°51.378 10.1604 3.497801 31.461094 4.815049
2010-04-29 07:41:06 51°25.097 2°51.381 10.1494 3.497379 31.458982 4.745401
2010-04-29 07:41:11 51°25.114 2°51.383 10.1717 3.496325 31.451253 4.675753
2010-04-29 07:41:16 51°25.131 2°51.386 10.1612 3.496747 31.456165 4.57128
2010-04-29 07:41:20 51°25.145 2°51.389 10.1596 3.496747 31.456165 4.57128
2010-04-29 07:41:26 51°25.165 2°51.391 10.1516 3.494533 31.436853 4.362336
2010-04-29 07:41:30 51°25.178 2°51.394 10.1604 3.496114 31.454747 4.257864
2010-04-29 07:41:36 51°25.199 2°51.396 10.1545 3.494217 31.436492 4.118568
2010-04-29 07:41:40 51°25.212 2°51.399 10.1598 3.494111 31.436139 3.979271
2010-04-29 07:41:46 51°25.233 2°51.401 10.1498 3.495693 31.451235 3.839975
2010-04-29 07:41:50 51°25.246 2°51.405 10.1514 3.495693 31.451235 3.839975
2010-04-29 07:41:56 51°25.267 2°51.407 10.1552 3.496536 31.458259 3.596207
2010-04-29 07:42:00 51°25.28 2°51.41 10.1427 3.49622 31.4551 3.422087
2010-04-29 07:42:05 51°25.297 2°51.413 10.1469 3.496431 31.459306 3.352439
2010-04-29 07:42:11 51°25.318 2°51.417 10.1438 3.495798 31.453688 3.247966
2010-04-29 07:42:16 51°25.335 2°51.419 10.1419 3.495904 31.456141 3.073846
2010-04-29 07:42:20 51°25.348 2°51.421 10.1359 3.495904 31.456141 3.073846
2010-04-29 07:42:26 51°25.369 2°51.425 10.147 3.494006 31.438585 3.039022
2010-04-29 07:42:31 51°25.386 2°51.428 10.144 3.494217 31.441391 2.864902
2010-04-29 07:42:36 51°25.403 2°51.431 10.1448 3.495693 31.455435 2.830078
2010-04-29 07:42:40 51°25.417 2°51.433 10.144 3.493795 31.439978 2.690782
2010-04-29 07:42:46 51°25.437 2°51.437 10.1386 3.494111 31.444537 2.551485
2010-04-29 07:42:51 51°25.454 2°51.439 10.1474 3.494111 31.444537 2.551485
2010-04-29 07:42:56 51°25.471 2°51.443 10.142 3.492635 31.432591 2.412189
2010-04-29 07:43:00 51°25.485 2°51.444 10.145 3.492635 31.435391 2.447013
2010-04-29 07:43:06 51°25.506 2°51.448 10.1418 3.494639 31.454005 2.481837
2010-04-29 07:43:11 51°25.523 2°51.451 10.1413 3.492214 31.430477 2.447013
2010-04-29 07:43:16 51°25.54 2°51.454 10.1364 3.492214 31.430477 2.447013
2010-04-29 07:43:20 51°25.554 2°51.456 10.1459 3.493057 31.438204 2.481837
2010-04-29 07:43:26 51°25.574 2°51.459 10.1374 3.492741 31.435744 2.481837
2010-04-29 07:43:31 51°25.591 2°51.462 10.1441 3.490316 31.410818 2.447013
2010-04-29 07:43:36 51°25.609 2°51.465 10.14 3.494428 31.451899 2.481837
2010-04-29 07:43:40 51°25.623 2°51.467 10.1457 3.493584 31.444171 2.516661
2010-04-29 07:43:45 51°25.64 2°51.47 10.1382 3.493584 31.444171 2.516661
2010-04-29 07:43:51 51°25.66 2°51.473 10.14 3.494428 31.453299 2.516661
2010-04-29 07:43:56 51°25.677 2°51.477 10.1306 3.493268 31.443812 2.551485
2010-04-29 07:44:00 51°25.691 2°51.479 10.131 3.490738 31.417829 2.551485
2010-04-29 07:44:05 51°25.708 2°51.481 10.1288 3.490105 31.411509 2.586309
2010-04-29 07:44:11 51°25.729 2°51.485 10.1392 3.494744 31.457861 2.586309
2010-04-29 07:44:16 51°25.747 2°51.488 10.1335 3.494111 31.451539 2.621133
2010-04-29 07:44:20 51°25.761 2°51.49 10.1425 3.494111 31.451539 2.621133
2010-04-29 07:44:26 51°25.781 2°51.493 10.132 3.494744 31.457861 2.586309
2010-04-29 07:44:31 51°25.798 2°51.497 10.1305 3.494955 31.461369 2.516661
2010-04-29 07:44:36 51°25.816 2°51.499 10.1336 3.494744 31.461364 2.516661
2010-04-29 07:44:40 51°25.83 2°51.502 10.1357 3.493374 31.451169 2.551485
2010-04-29 07:44:46 51°25.851 2°51.505 10.1269 3.494112 31.457844 2.586309
2010-04-29 07:44:51 51°25.868 2°51.508 10.1232 3.494112 31.457844 2.586309
2010-04-29 07:44:56 51°25.885 2°51.511 10.1202 3.494428 31.460305 2.655957
2010-04-29 07:45:00 51°25.899 2°51.513 10.1188 3.493374 31.449067 2.655957
2010-04-29 07:45:06 51°25.92 2°51.518 10.1169 3.49485 31.465221 2.725606
2010-04-29 07:45:11 51°25.938 2°51.52 10.12 3.49485 31.46452 2.725606
2010-04-29 07:45:16 51°25.955 2°51.524 10.1231 3.49485 31.46452 2.725606
2010-04-29 07:45:20 51°25.969 2°51.527 10.1281 3.493584 31.453276 2.76043
2010-04-29 07:45:26 51°25.99 2°51.531 10.1126 3.494744 31.465569 2.795254
2010-04-29 07:45:31 51°26.007 2°51.535 10.1155 3.49485 31.469426 2.76043
2010-04-29 07:45:36 51°26.025 2°51.539 10.1045 3.49485 31.472231 2.725606
2010-04-29 07:45:40 51°26.038 2°51.543 10.1011 3.494744 31.474683 2.690782
2010-04-29 07:45:45 51°26.056 2°51.547 10.1019 3.494744 31.474683 2.690782
2010-04-29 07:45:51 51°26.077 2°51.551 10.1114 3.49485 31.476438 2.76043
2010-04-29 07:45:56 51°26.094 2°51.555 10.1118 3.493585 31.463088 2.795254
2010-04-29 07:46:00 51°26.109 2°51.558 10.1031 3.494323 31.469765 2.93455
2010-04-29 07:46:05 51°26.126 2°51.562 10.105 3.495377 31.483814 3.10867
2010-04-29 07:46:11 51°26.147 2°51.567 10.106 3.495271 31.485566 3.247966
2010-04-29 07:46:16 51°26.165 2°51.57 10.107 3.495377 31.489428 3.317614
2010-04-29 07:46:20 51°26.179 2°51.573 10.1062 3.495377 31.489428 3.317614
2010-04-29 07:46:26 51°26.2 2°51.578 10.1103 3.495482 31.496098 3.28279
2010-04-29 07:46:31 51°26.218 2°51.582 10.114 3.495377 31.49364 3.247966
2010-04-29 07:46:36 51°26.236 2°51.585 10.1088 3.495588 31.494345 3.178318
2010-04-29 07:46:40 51°26.25 2°51.588 10.1081 3.495588 31.495749 3.073846
2010-04-29 07:46:45 51°26.268 2°51.591 10.1176 3.495799 31.49856 3.004198
2010-04-29 07:46:51 51°26.288 2°51.595 10.103 3.495799 31.49856 3.004198
2010-04-29 07:46:56 51°26.306 2°51.598 10.1028 3.495588 31.494345 2.899726
2010-04-29 07:47:00 51°26.32 2°51.601 10.1042 3.49601 31.499967 2.864902
2010-04-29 07:47:06 51°26.341 2°51.605 10.1116 3.496115 31.501724 2.864902
2010-04-29 07:47:11 51°26.359 2°51.608 10.0993 3.49622 31.502779 2.795254
2010-04-29 07:47:16 51°26.376 2°51.611 10.1032 3.49622 31.502779 2.795254
2010-04-29 07:47:20 51°26.391 2°51.614 10.1028 3.496326 31.503131 2.795254
2010-04-29 07:47:26 51°26.412 2°51.618 10.09 3.49622 31.502076 2.795254
2010-04-29 07:47:31 51°26.429 2°51.621 10.0999 3.495061 31.49188 2.899726
2010-04-29 07:47:36 51°26.447 2°51.624 10.0888 3.495272 31.493287 2.969374
2010-04-29 07:47:40 51°26.461 2°51.627 10.0802 3.496958 31.510161 3.004198
2010-04-29 07:47:46 51°26.482 2°51.631 10.0813 3.497169 31.512973 3.039022
2010-04-29 07:47:51 51°26.499 2°51.634 10.069 3.497169 31.512973 3.039022
2010-04-29 07:47:56 51°26.517 2°51.637 10.0734 3.497591 31.5193 3.039022
2010-04-29 07:48:00 51°26.531 2°51.639 10.0538 3.498118 31.525277 2.93455
2010-04-29 07:48:05 51°26.548 2°51.642 10.0526 3.49854 31.533012 2.795254
2010-04-29 07:48:11 51°26.569 2°51.646 10.0406 3.497486 31.523868 2.76043
2010-04-29 07:48:16 51°26.587 2°51.649 10.0393 3.498224 31.534066 2.725606
2010-04-29 07:48:20 51°26.601 2°51.652 10.0223 3.498224 31.534066 2.725606
2010-04-29 07:48:26 51°26.622 2°51.655 10.0168 3.498435 31.542508 2.795254
2010-04-29 07:48:31 51°26.639 2°51.658 9.9988 3.498646 31.548137 2.864902
2010-04-29 07:48:36 51°26.657 2°51.661 9.9849 3.499173 31.558343 3.039022
2010-04-29 07:48:40 51°26.671 2°51.664 9.9789 3.500543 31.579819 3.178318
2010-04-29 07:48:45 51°26.688 2°51.666 9.9737 3.500543 31.579819 3.178318
2010-04-29 07:48:51 51°26.709 2°51.67 9.957 3.499911 31.582647 3.352439
2010-04-29 07:48:56 51°26.727 2°51.673 9.9419 3.501598 31.605194 3.526559
2010-04-29 07:49:00 51°26.741 2°51.676 9.9351 3.500227 31.600634 3.735503
2010-04-29 07:49:05 51°26.758 2°51.679 9.9276 3.502125 31.625309 3.944447
2010-04-29 07:49:11 51°26.779 2°51.682 9.9358 3.502125 31.639448 4.188216
2010-04-29 07:49:16 51°26.797 2°51.685 9.9102 3.502125 31.639448 4.188216
2010-04-29 07:49:21 51°26.814 2°51.688 9.9135 3.502336 31.652178 4.362336
2010-04-29 07:49:26 51°26.832 2°51.691 9.8932 3.50065 31.643036 4.57128
2010-04-29 07:49:30 51°26.846 2°51.693 9.8985 3.500966 31.659667 4.745401
2010-04-29 07:49:36 51°26.867 2°51.697 9.8815 3.500861 31.671368 4.884697
2010-04-29 07:49:40 51°26.881 2°51.699 9.8724 3.502442 31.69577 4.989169
2010-04-29 07:49:46 51°26.902 2°51.703 9.8711 3.502232 31.697911 5.058817
2010-04-29 07:49:51 51°26.919 2°51.706 9.8736 3.502232 31.697911 5.058817
2010-04-29 07:49:56 51°26.937 2°51.709 9.8705 3.501915 31.704676 5.163289
2010-04-29 07:50:00 51°26.951 2°51.711 9.8672 3.50044 31.700495 5.198113
2010-04-29 07:50:06 51°26.971 2°51.716 9.8698 3.499913 31.705145 5.267761
2010-04-29 07:50:11 51°26.989 2°51.719 9.8602 3.500967 31.721441 5.33741
2010-04-29 07:50:16 51°27.006 2°51.723 9.8564 3.499702 31.720097 5.267761
2010-04-29 07:50:20 51°27.02 2°51.725 9.862 3.499702 31.720097 5.267761
2010-04-29 07:50:25 51°27.037 2°51.729 9.8491 3.498964 31.719788 5.198113
2010-04-29 07:50:31 51°27.057 2°51.732 9.8458 3.499175 31.725471 4.919521
2010-04-29 07:50:36 51°27.074 2°51.736 9.8308 3.49907 31.727971 4.745401
2010-04-29 07:50:40 51°27.087 2°51.738 9.8267 3.49907 31.728683 4.57128
2010-04-29 07:50:45 51°27.104 2°51.741 9.8138 3.49907 31.728683 4.57128
2010-04-29 07:50:51 51°27.125 2°51.744 9.8196 3.501073 31.755269 4.536456
2010-04-29 07:50:56 51°27.141 2°51.748 9.8056 3.501178 31.757757 4.431984
2010-04-29 07:51:00 51°27.155 2°51.751 9.786 3.500967 31.75706 4.39716
2010-04-29 07:51:05 51°27.172 2°51.753 9.7703 3.498121 31.731954 4.327512
2010-04-29 07:51:11 51°27.192 2°51.758 9.7664 3.497488 31.731285 4.292688
2010-04-29 07:51:16 51°27.209 2°51.759 9.7612 3.497488 31.731285 4.292688
2010-04-29 07:51:20 51°27.223 2°51.762 9.7487 3.50413 31.806778 4.292688
2010-04-29 07:51:26 51°27.243 2°51.766 9.7517 3.505185 31.828134 4.257864
2010-04-29 07:51:31 51°27.26 2°51.77 9.7422 3.505923 31.841302 4.362336
2010-04-29 07:51:36 51°27.276 2°51.773 9.7417 3.507188 31.861227 4.39716
2010-04-29 07:51:40 51°27.29 2°51.777 9.7421 3.508453 31.885465 4.501632
2010-04-29 07:51:46 51°27.309 2°51.783 9.7456 3.509719 31.911878 4.57128
2010-04-29 07:51:51 51°27.326 2°51.788 9.7484 3.509719 31.911878 4.57128
2010-04-29 07:51:56 51°27.342 2°51.795 9.7407 3.510668 31.926491 4.536456
2010-04-29 07:52:00 51°27.355 2°51.8 9.7336 3.511406 31.942575 4.501632
2010-04-29 07:52:06 51°27.374 2°51.809 9.73 3.51246 31.959705 4.362336
2010-04-29 07:52:11 51°27.39 2°51.817 9.7301 3.512882 31.973331 4.362336
2010-04-29 07:52:16 51°27.406 2°51.826 9.717 3.512882 31.973331 4.362336
2010-04-29 07:52:20 51°27.418 2°51.832 9.7097 3.512987 31.975838 4.292688
2010-04-29 07:52:25 51°27.434 2°51.843 9.7077 3.51362 31.985116 4.257864
2010-04-29 07:52:31 51°27.452 2°51.854 9.6986 3.514042 31.990101 4.188216
2010-04-29 07:52:36 51°27.467 2°51.864 9.6982 3.514569 31.997595 4.22304
2010-04-29 07:52:40 51°27.48 2°51.871 9.6882 3.515412 32.009009 4.153392
2010-04-29 07:52:45 51°27.495 2°51.882 9.6868 3.515412 32.009009 4.153392
2010-04-29 07:52:51 51°27.513 2°51.893 9.6855 3.515729 32.017261 4.118568
2010-04-29 07:52:56 51°27.528 2°51.903 9.6864 3.516361 32.027992 4.083744
2010-04-29 07:53:00 51°27.54 2°51.911 9.6835 3.516783 32.035871 4.014096
2010-04-29 07:53:05 51°27.556 2°51.921 9.6765 3.517205 32.049535 4.083744
2010-04-29 07:53:11 51°27.574 2°51.932 9.6791 3.517416 32.058903 4.188216
2010-04-29 07:53:16 51°27.589 2°51.942 9.6692 3.518154 32.070716 4.188216
2010-04-29 07:53:20 51°27.602 2°51.95 9.6842 3.518154 32.070716 4.188216
2010-04-29 07:53:26 51°27.62 2°51.961 9.6747 3.518049 32.073269 4.22304
2010-04-29 07:53:31 51°27.635 2°51.971 9.6689 3.518471 32.085507 4.188216
2010-04-29 07:53:36 51°27.651 2°51.981 9.663 3.518681 32.089816 4.083744
2010-04-29 07:53:40 51°27.663 2°51.989 9.6752 3.51826 32.085545 3.979271
2010-04-29 07:53:46 51°27.681 2°52.001 9.6632 3.518365 32.090236 3.874799
2010-04-29 07:53:51 51°27.697 2°52.011 9.6689 3.518365 32.090236 3.874799
2010-04-29 07:53:56 51°27.712 2°52.02 9.6652 3.517733 32.087451 3.770327
2010-04-29 07:54:01 51°27.727 2°52.03 9.6649 3.518365 32.09386 3.700679
2010-04-29 07:54:06 51°27.743 2°52.04 9.6633 3.518049 32.092831 3.631031
2010-04-29 07:54:11 51°27.758 2°52.05 9.6734 3.518471 32.100004 3.631031
2010-04-29 07:54:16 51°27.773 2°52.059 9.6602 3.518471 32.100004 3.631031
2010-04-29 07:54:20 51°27.786 2°52.067 9.6612 3.518154 32.098975 3.700679
2010-04-29 07:54:26 51°27.804 2°52.079 9.659 3.518049 32.098632 3.596207
2010-04-29 07:54:31 51°27.819 2°52.087 9.6594 3.517944 32.099014 3.596207
2010-04-29 07:54:36 51°27.835 2°52.097 9.6631 3.517838 32.099396 3.491735
2010-04-29 07:54:40 51°27.847 2°52.105 9.6566 3.516889 32.09123 3.422087
2010-04-29 07:54:45 51°27.863 2°52.115 9.6642 3.516889 32.09123 3.422087
2010-04-29 07:54:51 51°27.882 2°52.126 9.6631 3.517206 32.094435 3.422087
2010-04-29 07:54:56 51°27.897 2°52.135 9.6636 3.517522 32.097641 3.352439
2010-04-29 07:55:00 51°27.91 2°52.143 9.6673 3.517522 32.099817 3.352439
2010-04-29 07:55:05 51°27.925 2°52.153 9.673 3.516889 32.095582 3.352439
2010-04-29 07:55:11 51°27.944 2°52.165 9.6692 3.517417 32.100925 3.247966
2010-04-29 07:55:16 51°27.959 2°52.175 9.6708 3.516573 32.092376 3.178318
2010-04-29 07:55:20 51°27.972 2°52.182 9.6681 3.516573 32.092376 3.178318
2010-04-29 07:55:25 51°27.987 2°52.192 9.6762 3.516995 32.098827 3.10867
2010-04-29 07:55:31 51°28.006 2°52.203 9.674 3.516573 32.093101 3.073846
2010-04-29 07:55:36 51°28.021 2°52.213 9.6737 3.516889 32.095582 2.969374
2010-04-29 07:55:40 51°28.034 2°52.221 9.6683 3.516889 32.093406 2.969374
2010-04-29 07:55:46 51°28.053 2°52.233 9.6764 3.516889 32.093406 2.969374
2010-04-29 07:55:51 51°28.068 2°52.242 9.6794 3.516889 32.09123 2.899726
2010-04-29 07:55:56 51°28.084 2°52.252 9.6741 3.516889 32.090505 2.899726
2010-04-29 07:56:01 51°28.099 2°52.262 9.674 3.516046 32.080507 2.93455
2010-04-29 07:56:06 51°28.115 2°52.272 9.6789 3.516889 32.088329 3.039022
2010-04-29 07:56:11 51°28.131 2°52.281 9.6768 3.516995 32.087948 3.28279
2010-04-29 07:56:16 51°28.146 2°52.291 9.6807 3.516995 32.087948 3.28279
2010-04-29 07:56:20 51°28.159 2°52.298 9.6766 3.5171 32.088291 3.422087
2010-04-29 07:56:26 51°28.178 2°52.31 9.6807 3.516995 32.088673 3.561383
2010-04-29 07:56:31 51°28.194 2°52.319 9.6825 3.517206 32.090084 3.665855
2010-04-29 07:56:36 51°28.209 2°52.329 9.6646 3.517206 32.090084 3.700679
2010-04-29 07:56:40 51°28.222 2°52.337 9.6663 3.516889 32.084704 3.735503
2010-04-29 07:56:46 51°28.241 2°52.349 9.6589 3.517311 32.089703 3.700679
2010-04-29 07:56:51 51°28.257 2°52.358 9.6681 3.517311 32.089703 3.700679
2010-04-29 07:56:56 51°28.272 2°52.368 9.6658 3.516784 32.082911 3.665855
2010-04-29 07:57:00 51°28.285 2°52.375 9.6726 3.517522 32.091114 3.596207
2010-04-29 07:57:05 51°28.301 2°52.385 9.6749 3.5171 32.083942 3.526559
2010-04-29 07:57:11 51°28.319 2°52.395 9.6733 3.518471 32.100004 3.561383
2010-04-29 07:57:16 51°28.335 2°52.404 9.6725 3.517944 32.098288 3.596207
2010-04-29 07:57:20 51°28.348 2°52.412 9.676 3.517944 32.098288 3.596207
2010-04-29 07:57:26 51°28.367 2°52.424 9.6729 3.518365 32.10619 3.631031
2010-04-29 07:57:31 51°28.383 2°52.434 9.6715 3.518682 32.111572 3.526559
2010-04-29 07:57:36 51°28.398 2°52.444 9.6758 3.518998 32.115504 3.456911
2010-04-29 07:57:40 51°28.411 2°52.451 9.6701 3.518471 32.107984 3.422087
2010-04-29 07:57:45 51°28.427 2°52.461 9.6711 3.519314 32.115081 3.387263
2010-04-29 07:57:51 51°28.446 2°52.473 9.6664 3.519314 32.115081 3.387263
2010-04-29 07:57:56 51°28.462 2°52.482 9.6629 3.519314 32.114356 3.387263
2010-04-29 07:58:00 51°28.475 2°52.49 9.6727 3.519314 32.11363 3.352439
2010-04-29 07:58:05 51°28.491 2°52.499 9.6646 3.519314 32.11363 3.352439
2010-04-29 07:58:11 51°28.51 2°52.51 9.6609 3.51942 32.114699 3.387263
2010-04-29 07:58:16 51°28.526 2°52.52 9.6622 3.51942 32.114699 3.387263
2010-04-29 07:58:20 51°28.539 2°52.527 9.6631 3.519525 32.115767 3.456911
2010-04-29 07:58:26 51°28.558 2°52.539 9.6612 3.519631 32.119013 3.526559
2010-04-29 07:58:31 51°28.574 2°52.548 9.6653 3.519631 32.119739 3.491735
2010-04-29 07:58:36 51°28.59 2°52.557 9.6611 3.519947 32.124397 3.491735
2010-04-29 07:58:40 51°28.602 2°52.566 9.6618 3.519736 32.12226 3.491735
2010-04-29 07:58:46 51°28.622 2°52.578 9.6648 3.518682 32.112298 3.561383
2010-04-29 07:58:51 51°28.638 2°52.588 9.6673 3.518682 32.112298 3.561383
2010-04-29 07:58:56 51°28.653 2°52.597 9.668 3.519947 32.127301 3.526559
2010-04-29 07:59:00 51°28.666 2°52.605 9.6591 3.519841 32.126233 3.526559
2010-04-29 07:59:05 51°28.682 2°52.615 9.6593 3.519631 32.126273 3.561383
2010-04-29 07:59:11 51°28.701 2°52.627 9.6687 3.519631 32.126273 3.631031
2010-04-29 07:59:16 51°28.717 2°52.636 9.6612 3.519631 32.126273 3.665855
2010-04-29 07:59:20 51°28.73 2°52.644 9.6674 3.519631 32.126273 3.665855
2010-04-29 07:59:26 51°28.749 2°52.656 9.6674 3.520474 32.134098 3.700679
2010-04-29 07:59:31 51°28.765 2°52.665 9.6548 3.519631 32.125547 3.700679
2010-04-29 07:59:36 51°28.781 2°52.675 9.6488 3.520369 32.130124 3.735503
2010-04-29 07:59:40 51°28.794 2°52.683 9.6483 3.520579 32.135894 3.770327
2010-04-29 07:59:45 51°28.81 2°52.692 9.648 3.520579 32.135894 3.770327
2010-04-29 07:59:51 51°28.829 2°52.703 9.6517 3.520579 32.13662 3.770327
2010-04-29 07:59:56 51°28.845 2°52.712 9.6496 3.521212 32.141581 3.805151
2010-04-29 08:00:01 51°28.861 2°52.722 9.6543 3.521001 32.138716 3.909623
2010-04-29 08:00:05 51°28.874 2°52.729 9.6579 3.521318 32.144103 3.944447
2010-04-29 08:00:11 51°28.894 2°52.74 9.6596 3.521634 32.14949 4.083744
2010-04-29 08:00:16 51°28.91 2°52.749 9.6581 3.521634 32.14949 4.083744
2010-04-29 08:00:20 51°28.923 2°52.756 9.6454 3.521739 32.154194 4.118568
2010-04-29 08:00:25 51°28.939 2°52.764 9.6367 3.521107 32.150686 4.188216
2010-04-29 08:00:31 51°28.958 2°52.776 9.631 3.520896 32.148548 4.188216
2010-04-29 08:00:36 51°28.974 2°52.785 9.6265 3.520896 32.150002 4.118568
2010-04-29 08:00:41 51°28.99 2°52.794 9.6182 3.521001 32.14889 4.083744
2010-04-29 08:00:46 51°29.006 2°52.804 9.6225 3.519631 32.132084 4.083744
2010-04-29 08:00:51 51°29.022 2°52.813 9.6164 3.519631 32.132084 4.083744
2010-04-29 08:00:56 51°29.038 2°52.822 9.6147 3.519842 32.133496 4.257864
2010-04-29 08:01:00 51°29.05 2°52.83 9.6174 3.521845 32.157444 4.466808